Observation data for Bootleg on 03/01/2021      Previous  Date  Next       Current Mesonet Observations  Soil Data  Daily Summary Page  Observations in Plain Language
KBO1 010600Z 03007KT M03/M14 A3022 RMK A01 T10341135  RH  046%=      5-min Rain = 0
KBO1 010601Z 02007KT M04/M14 A3022 RMK A01 T10351135  RH  046%=      5-min Rain = 0
KBO1 010602Z 02006KT M04/M14 A3021 RMK A01 T10351135  RH  046%=      5-min Rain = 0
KBO1 010603Z 02007KT M04/M14 A3022 RMK A01 T10361135  RH  046%=      5-min Rain = 0
KBO1 010604Z 02007KT M04/M14 A3022 RMK A01 T10371136  RH  046%=      5-min Rain = 0
KBO1 010605Z 02007KT M04/M14 A3022 RMK A01 T10371136  RH  046%=      5-min Rain = 0
KBO1 010606Z 02007KT M04/M14 A3022 RMK A01 T10381136  RH  047%=      5-min Rain = 0
KBO1 010607Z 02006KT M04/M14 A3022 RMK A01 T10391136  RH  047%=      5-min Rain = 0
KBO1 010608Z 02007KT M04/M14 A3022 RMK A01 T10401136  RH  047%=      5-min Rain = 0
KBO1 010609Z 02006KT M04/M14 A3022 RMK A01 T10411136  RH  047%=      5-min Rain = 0
KBO1 010610Z 02007KT M04/M14 A3022 RMK A01 T10411136  RH  047%=      5-min Rain = 0
KBO1 010611Z 02007KT M04/M14 A3022 RMK A01 T10411136  RH  048%=      5-min Rain = 0
KBO1 010612Z 02007KT M04/M14 A3023 RMK A01 T10421136  RH  048%=      5-min Rain = 0
KBO1 010613Z 02006KT M04/M14 A3023 RMK A01 T10421136  RH  048%=      5-min Rain = 0
KBO1 010614Z 02006KT M04/M14 A3022 RMK A01 T10421135  RH  048%=      5-min Rain = 0
KBO1 010615Z 02006KT M04/M14 A3022 RMK A01 T10421135  RH  048%=      5-min Rain = 0
KBO1 010616Z 02006KT M04/M14 A3022 RMK A01 T10421135  RH  048%=      5-min Rain = 0
KBO1 010617Z 02005KT M04/M14 A3022 RMK A01 T10421136  RH  048%=      5-min Rain = 0
KBO1 010618Z 02005KT M04/M14 A3022 RMK A01 T10421136  RH  048%=      5-min Rain = 0
KBO1 010619Z 02006KT M04/M14 A3022 RMK A01 T10421136  RH  048%=      5-min Rain = 0
KBO1 010620Z 03006KT M04/M14 A3022 RMK A01 T10421137  RH  048%=      5-min Rain = 0
KBO1 010621Z 03007KT M04/M14 A3022 RMK A01 T10421137  RH  048%=      5-min Rain = 0
KBO1 010622Z 03007KT M04/M14 A3022 RMK A01 T10421137  RH  047%=      5-min Rain = 0
KBO1 010623Z 03007KT M04/M14 A3022 RMK A01 T10431138  RH  048%=      5-min Rain = 0
KBO1 010624Z 03007KT M04/M14 A3022 RMK A01 T10441138  RH  048%=      5-min Rain = 0
KBO1 010625Z 03007KT M04/M14 A3022 RMK A01 T10441137  RH  048%=      5-min Rain = 0
KBO1 010626Z 03007KT M05/M14 A3022 RMK A01 T10451137  RH  049%=      5-min Rain = 0
KBO1 010627Z 03007KT M05/M14 A3022 RMK A01 T10451136  RH  049%=      5-min Rain = 0
KBO1 010628Z 03007KT M05/M14 A3022 RMK A01 T10461137  RH  049%=      5-min Rain = 0
KBO1 010629Z 03007KT M05/M14 A3022 RMK A01 T10461136  RH  049%=      5-min Rain = 0
KBO1 010630Z 03007KT M05/M14 A3021 RMK A01 T10461136  RH  049%=      5-min Rain = 0
KBO1 010631Z 03007KT M05/M14 A3021 RMK A01 T10451135  RH  049%=      5-min Rain = 0
KBO1 010632Z 03007KT M05/M14 A3021 RMK A01 T10451135  RH  049%=      5-min Rain = 0
KBO1 010633Z 03007KT M04/M14 A3021 RMK A01 T10441135  RH  049%=      5-min Rain = 0
KBO1 010634Z 03008KT M04/M13 A3021 RMK A01 T10441134  RH  049%=      5-min Rain = 0
KBO1 010635Z 04008KT M04/M13 A3021 RMK A01 T10431134  RH  049%=      5-min Rain = 0
KBO1 010636Z 04008KT M04/M13 A3021 RMK A01 T10431133  RH  049%=      5-min Rain = 0
KBO1 010637Z 04008KT M04/M13 A3021 RMK A01 T10421133  RH  049%=      5-min Rain = 0
KBO1 010638Z 04007KT M04/M13 A3021 RMK A01 T10411132  RH  049%=      5-min Rain = 0
KBO1 010639Z 04007KT M04/M13 A3021 RMK A01 T10401132  RH  049%=      5-min Rain = 0
KBO1 010640Z 04007KT M04/M13 A3021 RMK A01 T10401132  RH  049%=      5-min Rain = 0
KBO1 010641Z 04007KT M04/M13 A3021 RMK A01 T10391132  RH  049%=      5-min Rain = 0
KBO1 010642Z 04007KT M04/M13 A3021 RMK A01 T10391132  RH  049%=      5-min Rain = 0
KBO1 010643Z 04008KT M04/M13 A3021 RMK A01 T10391132  RH  049%=      5-min Rain = 0
KBO1 010644Z 04008KT M04/M13 A3021 RMK A01 T10401132  RH  049%=      5-min Rain = 0
KBO1 010645Z 04008KT M04/M13 A3021 RMK A01 T10401132  RH  049%=      5-min Rain = 0
KBO1 010646Z 04008KT M04/M13 A3021 RMK A01 T10401132  RH  049%=      5-min Rain = 0
KBO1 010647Z 04008KT M04/M13 A3021 RMK A01 T10411132  RH  049%=      5-min Rain = 0
KBO1 010648Z 04008KT M04/M13 A3021 RMK A01 T10411132  RH  049%=      5-min Rain = 0
KBO1 010649Z 04008KT M04/M13 A3021 RMK A01 T10421132  RH  049%=      5-min Rain = 0
KBO1 010650Z 04007KT M04/M13 A3021 RMK A01 T10421133  RH  049%=      5-min Rain = 0
KBO1 010651Z 03007KT M04/M13 A3021 RMK A01 T10421133  RH  049%=      5-min Rain = 0
KBO1 010652Z 03007KT M04/M13 A3021 RMK A01 T10431133  RH  050%=      5-min Rain = 0
KBO1 010653Z 03007KT M04/M13 A3021 RMK A01 T10421132  RH  050%=      5-min Rain = 0
KBO1 010654Z 03007KT M04/M13 A3021 RMK A01 T10431132  RH  050%=      5-min Rain = 0
KBO1 010655Z 03007KT M04/M13 A3021 RMK A01 T10431132  RH  050%=      5-min Rain = 0
KBO1 010656Z 03006KT M04/M13 A3021 RMK A01 T10431133  RH  050%=      5-min Rain = 0
KBO1 010657Z 03006KT M04/M13 A3021 RMK A01 T10431133  RH  050%=      5-min Rain = 0
KBO1 010658Z 03006KT M04/M13 A3021 RMK A01 T10441134  RH  050%=      5-min Rain = 0
KBO1 010659Z 03006KT M05/M13 A3021 RMK A01 T10451134  RH  050%=      5-min Rain = 0
KBO1 010700Z 03006KT M05/M13 A3021 RMK A01 T10461134  RH  050%=      5-min Rain = 0
KBO1 010701Z 03005KT M05/M14 A3022 RMK A01 T10471135  RH  050%=      5-min Rain = 0
KBO1 010702Z 03005KT M05/M14 A3022 RMK A01 T10471135  RH  050%=      5-min Rain = 0
KBO1 010703Z 03005KT M05/M14 A3022 RMK A01 T10481135  RH  050%=      5-min Rain = 0
KBO1 010704Z 02004KT M05/M14 A3021 RMK A01 T10481135  RH  050%=      5-min Rain = 0
KBO1 010705Z 02004KT M05/M14 A3021 RMK A01 T10481136  RH  050%=      5-min Rain = 0
KBO1 010706Z 02003KT M05/M14 A3021 RMK A01 T10481136  RH  050%=      5-min Rain = 0
KBO1 010707Z 01003KT M05/M14 A3021 RMK A01 T10481136  RH  050%=      5-min Rain = 0
KBO1 010708Z 01003KT M05/M14 A3021 RMK A01 T10481137  RH  050%=      5-min Rain = 0
KBO1 010709Z 36002KT M05/M14 A3021 RMK A01 T10491137  RH  050%=      5-min Rain = 0
KBO1 010710Z 36002KT M05/M14 A3021 RMK A01 T10511138  RH  051%=      5-min Rain = 0
KBO1 010711Z 35001KT M05/M14 A3021 RMK A01 T10541139  RH  051%=      5-min Rain = 0
KBO1 010712Z 35002KT M06/M14 A3021 RMK A01 T10551138  RH  052%=      5-min Rain = 0
KBO1 010713Z 36002KT M06/M14 A3021 RMK A01 T10551138  RH  052%=      5-min Rain = 0
KBO1 010714Z 00002KT M05/M14 A3021 RMK A01 T10541137  RH  052%=      5-min Rain = 0
KBO1 010715Z 00002KT M05/M14 A3021 RMK A01 T10531136  RH  052%=      5-min Rain = 0
KBO1 010716Z 00003KT M05/M14 A3021 RMK A01 T10511136  RH  052%=      5-min Rain = 0
KBO1 010717Z 00004KT M05/M14 A3021 RMK A01 T10491135  RH  051%=      5-min Rain = 0
KBO1 010718Z 00004KT M05/M13 A3021 RMK A01 T10471134  RH  050%=      5-min Rain = 0
KBO1 010719Z 01003KT M04/M13 A3021 RMK A01 T10441133  RH  050%=      5-min Rain = 0
KBO1 010720Z 01004KT M04/M13 A3021 RMK A01 T10431134  RH  049%=      5-min Rain = 0
KBO1 010721Z 01004KT M04/M14 A3021 RMK A01 T10431135  RH  049%=      5-min Rain = 0
KBO1 010722Z 02005KT M04/M14 A3021 RMK A01 T10421135  RH  049%=      5-min Rain = 0
KBO1 010723Z 02005KT M04/M14 A3022 RMK A01 T10411135  RH  048%=      5-min Rain = 0
KBO1 010724Z 02005KT M04/M14 A3022 RMK A01 T10411135  RH  048%=      5-min Rain = 0
KBO1 010725Z 02006KT M04/M14 A3022 RMK A01 T10411135  RH  048%=      5-min Rain = 0
KBO1 010726Z 02006KT M04/M14 A3022 RMK A01 T10411135  RH  048%=      5-min Rain = 0
KBO1 010727Z 02005KT M04/M14 A3022 RMK A01 T10421135  RH  048%=      5-min Rain = 0
KBO1 010728Z 02005KT M04/M13 A3022 RMK A01 T10421134  RH  049%=      5-min Rain = 0
KBO1 010729Z 03005KT M04/M13 A3022 RMK A01 T10431134  RH  049%=      5-min Rain = 0
KBO1 010730Z 02005KT M04/M13 A3022 RMK A01 T10421133  RH  049%=      5-min Rain = 0
KBO1 010731Z 02004KT M04/M13 A3022 RMK A01 T10421133  RH  049%=      5-min Rain = 0
KBO1 010732Z 02004KT M04/M13 A3022 RMK A01 T10421133  RH  049%=      5-min Rain = 0
KBO1 010733Z 00003KT M04/M13 A3022 RMK A01 T10411133  RH  049%=      5-min Rain = 0
KBO1 010734Z 01004KT M04/M13 A3022 RMK A01 T10401132  RH  048%=      5-min Rain = 0
KBO1 010735Z 01003KT M04/M13 A3022 RMK A01 T10381132  RH  048%=      5-min Rain = 0
KBO1 010736Z 01004KT M04/M13 A3022 RMK A01 T10381132  RH  048%=      5-min Rain = 0
KBO1 010737Z 01005KT M04/M13 A3022 RMK A01 T10381132  RH  048%=      5-min Rain = 0
KBO1 010738Z 01005KT M04/M13 A3022 RMK A01 T10381133  RH  048%=      5-min Rain = 0
KBO1 010739Z 01006KT M04/M13 A3022 RMK A01 T10391133  RH  048%=      5-min Rain = 0
KBO1 010740Z 01006KT M04/M13 A3022 RMK A01 T10391133  RH  048%=      5-min Rain = 0
KBO1 010741Z 36006KT M04/M13 A3022 RMK A01 T10411134  RH  048%=      5-min Rain = 0
KBO1 010742Z 35006KT M04/M14 A3022 RMK A01 T10441136  RH  049%=      5-min Rain = 0
KBO1 010743Z 34006KT M05/M14 A3022 RMK A01 T10471136  RH  050%=      5-min Rain = 0
KBO1 010744Z 35006KT M05/M14 A3022 RMK A01 T10491135  RH  051%=      5-min Rain = 0
KBO1 010745Z 34006KT M05/M14 A3022 RMK A01 T10501135  RH  051%=      5-min Rain = 0
KBO1 010746Z 35006KT M05/M13 A3022 RMK A01 T10511134  RH  052%=      5-min Rain = 0
KBO1 010747Z 35006KT M05/M13 A3022 RMK A01 T10511133  RH  053%=      5-min Rain = 0
KBO1 010748Z 35006KT M05/M13 A3022 RMK A01 T10511133  RH  053%=      5-min Rain = 0
KBO1 010749Z 35005KT M05/M13 A3022 RMK A01 T10511132  RH  053%=      5-min Rain = 0
KBO1 010750Z 36005KT M05/M13 A3022 RMK A01 T10511132  RH  053%=      5-min Rain = 0
KBO1 010751Z 01005KT M05/M13 A3022 RMK A01 T10501132  RH  053%=      5-min Rain = 0
KBO1 010752Z 01005KT M05/M13 A3022 RMK A01 T10511132  RH  053%=      5-min Rain = 0
KBO1 010753Z 02005KT M05/M13 A3022 RMK A01 T10511133  RH  053%=      5-min Rain = 0
KBO1 010754Z 02005KT M05/M13 A3022 RMK A01 T10491131  RH  053%=      5-min Rain = 0
KBO1 010755Z 02005KT M05/M13 A3022 RMK A01 T10481130  RH  052%=      5-min Rain = 0
KBO1 010756Z 02006KT M05/M13 A3022 RMK A01 T10451129  RH  052%=      5-min Rain = 0
KBO1 010757Z 01006KT M04/M13 A3022 RMK A01 T10431130  RH  051%=      5-min Rain = 0
KBO1 010758Z 02007KT M04/M13 A3022 RMK A01 T10431131  RH  050%=      5-min Rain = 0
KBO1 010759Z 01006KT M04/M13 A3022 RMK A01 T10441132  RH  050%=      5-min Rain = 0
KBO1 010800Z 01006KT M04/M13 A3022 RMK A01 T10441131  RH  051%=      5-min Rain = 0
KBO1 010801Z 01006KT M05/M13 A3022 RMK A01 T10451131  RH  051%=      5-min Rain = 0
KBO1 010802Z 01006KT M05/M13 A3022 RMK A01 T10451131  RH  051%=      5-min Rain = 0
KBO1 010803Z 01006KT M05/M13 A3022 RMK A01 T10461131  RH  051%=      5-min Rain = 0
KBO1 010804Z 01005KT M05/M13 A3022 RMK A01 T10471132  RH  051%=      5-min Rain = 0
KBO1 010805Z 02005KT M05/M13 A3022 RMK A01 T10481133  RH  051%=      5-min Rain = 0
KBO1 010806Z 03006KT M05/M13 A3022 RMK A01 T10471132  RH  051%=      5-min Rain = 0
KBO1 010807Z 03005KT M05/M13 A3023 RMK A01 T10471132  RH  051%=      5-min Rain = 0
KBO1 010808Z 03006KT M05/M13 A3023 RMK A01 T10471132  RH  051%=      5-min Rain = 0
KBO1 010809Z 04005KT M05/M13 A3023 RMK A01 T10451131  RH  051%=      5-min Rain = 0
KBO1 010810Z 04005KT M04/M13 A3023 RMK A01 T10441131  RH  051%=      5-min Rain = 0
KBO1 010811Z 04005KT M04/M13 A3023 RMK A01 T10441131  RH  051%=      5-min Rain = 0
KBO1 010812Z 04006KT M04/M13 A3023 RMK A01 T10431131  RH  050%=      5-min Rain = 0
KBO1 010813Z 04006KT M04/M13 A3023 RMK A01 T10441132  RH  050%=      5-min Rain = 0
KBO1 010814Z 04006KT M04/M13 A3023 RMK A01 T10441132  RH  050%=      5-min Rain = 0
KBO1 010815Z 04006KT M04/M13 A3023 RMK A01 T10441132  RH  050%=      5-min Rain = 0
KBO1 010816Z 04006KT M04/M13 A3023 RMK A01 T10441132  RH  050%=      5-min Rain = 0
KBO1 010817Z 05006KT M04/M13 A3023 RMK A01 T10441132  RH  050%=      5-min Rain = 0
KBO1 010818Z 05006KT M04/M13 A3023 RMK A01 T10441132  RH  050%=      5-min Rain = 0
KBO1 010819Z 06006KT M04/M13 A3023 RMK A01 T10441132  RH  050%=      5-min Rain = 0
KBO1 010820Z 06006KT M04/M13 A3023 RMK A01 T10431131  RH  050%=      5-min Rain = 0
KBO1 010821Z 06006KT M04/M13 A3023 RMK A01 T10431131  RH  050%=      5-min Rain = 0
KBO1 010822Z 06006KT M04/M13 A3023 RMK A01 T10421131  RH  050%=      5-min Rain = 0
KBO1 010823Z 06006KT M04/M13 A3023 RMK A01 T10411130  RH  050%=      5-min Rain = 0
KBO1 010824Z 06007KT M04/M13 A3023 RMK A01 T10401131  RH  049%=      5-min Rain = 0
KBO1 010825Z 06007KT M04/M13 A3023 RMK A01 T10401131  RH  049%=      5-min Rain = 0
KBO1 010826Z 06007KT M04/M13 A3023 RMK A01 T10401131  RH  049%=      5-min Rain = 0
KBO1 010827Z 06007KT M04/M13 A3023 RMK A01 T10401130  RH  049%=      5-min Rain = 0
KBO1 010828Z 06007KT M04/M13 A3023 RMK A01 T10411130  RH  050%=      5-min Rain = 0
KBO1 010829Z 06007KT M04/M13 A3023 RMK A01 T10411129  RH  050%=      5-min Rain = 0
KBO1 010830Z 06007KT M04/M13 A3023 RMK A01 T10411129  RH  050%=      5-min Rain = 0
KBO1 010831Z 05007KT M04/M13 A3023 RMK A01 T10411128  RH  050%=      5-min Rain = 0
KBO1 010832Z 05007KT M04/M13 A3023 RMK A01 T10401128  RH  050%=      5-min Rain = 0
KBO1 010833Z 05007KT M04/M13 A3023 RMK A01 T10401128  RH  050%=      5-min Rain = 0
KBO1 010834Z 06007KT M04/M13 A3023 RMK A01 T10401128  RH  050%=      5-min Rain = 0
KBO1 010835Z 06006KT M04/M13 A3023 RMK A01 T10401128  RH  050%=      5-min Rain = 0
KBO1 010836Z 06006KT M04/M13 A3023 RMK A01 T10401128  RH  050%=      5-min Rain = 0
KBO1 010837Z 06006KT M04/M13 A3023 RMK A01 T10391128  RH  050%=      5-min Rain = 0
KBO1 010838Z 06006KT M04/M13 A3023 RMK A01 T10391127  RH  050%=      5-min Rain = 0
KBO1 010839Z 05006KT M04/M13 A3023 RMK A01 T10391127  RH  050%=      5-min Rain = 0
KBO1 010840Z 05006KT M04/M13 A3023 RMK A01 T10391127  RH  050%=      5-min Rain = 0
KBO1 010841Z 05006KT M04/M13 A3023 RMK A01 T10381127  RH  050%=      5-min Rain = 0
KBO1 010842Z 05005KT M04/M13 A3023 RMK A01 T10371127  RH  050%=      5-min Rain = 0
KBO1 010843Z 05005KT M04/M13 A3023 RMK A01 T10371127  RH  050%=      5-min Rain = 0
KBO1 010844Z 04005KT M04/M13 A3023 RMK A01 T10361127  RH  050%=      5-min Rain = 0
KBO1 010845Z 04005KT M04/M13 A3023 RMK A01 T10371128  RH  049%=      5-min Rain = 0
KBO1 010846Z 04006KT M04/M13 A3023 RMK A01 T10371128  RH  049%=      5-min Rain = 0
KBO1 010847Z 05006KT M04/M13 A3023 RMK A01 T10371128  RH  049%=      5-min Rain = 0
KBO1 010848Z 05005KT M04/M13 A3023 RMK A01 T10371128  RH  049%=      5-min Rain = 0
KBO1 010849Z 05005KT M04/M13 A3023 RMK A01 T10371128  RH  049%=      5-min Rain = 0
KBO1 010850Z 05005KT M04/M13 A3023 RMK A01 T10371128  RH  049%=      5-min Rain = 0
KBO1 010851Z 04005KT M04/M13 A3023 RMK A01 T10371128  RH  049%=      5-min Rain = 0
KBO1 010852Z 04004KT M04/M13 A3023 RMK A01 T10381128  RH  049%=      5-min Rain = 0
KBO1 010853Z 04004KT M04/M13 A3023 RMK A01 T10381128  RH  049%=      5-min Rain = 0
KBO1 010854Z 04005KT M04/M13 A3023 RMK A01 T10371128  RH  049%=      5-min Rain = 0
KBO1 010855Z 04005KT M04/M13 A3023 RMK A01 T10381128  RH  049%=      5-min Rain = 0
KBO1 010856Z 05004KT M04/M13 A3023 RMK A01 T10381129  RH  049%=      5-min Rain = 0
KBO1 010857Z 05004KT M04/M13 A3023 RMK A01 T10371129  RH  049%=      5-min Rain = 0
KBO1 010858Z 05004KT M04/M13 A3023 RMK A01 T10371128  RH  049%=      5-min Rain = 0
KBO1 010859Z 05004KT M04/M13 A3023 RMK A01 T10371128  RH  049%=      5-min Rain = 0
KBO1 010900Z 05004KT M04/M13 A3023 RMK A01 T10371129  RH  049%=      5-min Rain = 0
KBO1 010901Z 05005KT M04/M13 A3024 RMK A01 T10361128  RH  049%=      5-min Rain = 0
KBO1 010902Z 05005KT M04/M13 A3024 RMK A01 T10361128  RH  049%=      5-min Rain = 0
KBO1 010903Z 06005KT M04/M13 A3024 RMK A01 T10351127  RH  049%=      5-min Rain = 0
KBO1 010904Z 06005KT M04/M13 A3024 RMK A01 T10351127  RH  049%=      5-min Rain = 0
KBO1 010905Z 06005KT M04/M13 A3024 RMK A01 T10351126  RH  049%=      5-min Rain = 0
KBO1 010906Z 05005KT M04/M13 A3024 RMK A01 T10351126  RH  049%=      5-min Rain = 0
KBO1 010907Z 05005KT M04/M13 A3024 RMK A01 T10351127  RH  049%=      5-min Rain = 0
KBO1 010908Z 05006KT M04/M13 A3024 RMK A01 T10361127  RH  049%=      5-min Rain = 0
KBO1 010909Z 05005KT M04/M13 A3024 RMK A01 T10361126  RH  050%=      5-min Rain = 0
KBO1 010910Z 05005KT M04/M13 A3023 RMK A01 T10361126  RH  050%=      5-min Rain = 0
KBO1 010911Z 05005KT M04/M13 A3023 RMK A01 T10361126  RH  050%=      5-min Rain = 0
KBO1 010912Z 05006KT M04/M13 A3023 RMK A01 T10361126  RH  050%=      5-min Rain = 0
KBO1 010913Z 05005KT M04/M13 A3023 RMK A01 T10371126  RH  050%=      5-min Rain = 0
KBO1 010914Z 05005KT M04/M13 A3023 RMK A01 T10371126  RH  050%=      5-min Rain = 0
KBO1 010915Z 05005KT M04/M13 A3023 RMK A01 T10371126  RH  050%=      5-min Rain = 0
KBO1 010916Z 05006KT M04/M13 A3023 RMK A01 T10371126  RH  050%=      5-min Rain = 0
KBO1 010917Z 05005KT M04/M13 A3023 RMK A01 T10371126  RH  050%=      5-min Rain = 0
KBO1 010918Z 05006KT M04/M13 A3023 RMK A01 T10371125  RH  051%=      5-min Rain = 0
KBO1 010919Z 05005KT M04/M13 A3023 RMK A01 T10371125  RH  051%=      5-min Rain = 0
KBO1 010920Z 05005KT M04/M12 A3023 RMK A01 T10371124  RH  051%=      5-min Rain = 0
KBO1 010921Z 05005KT M04/M12 A3023 RMK A01 T10371124  RH  051%=      5-min Rain = 0
KBO1 010922Z 05005KT M04/M12 A3023 RMK A01 T10371124  RH  051%=      5-min Rain = 0
KBO1 010923Z 05005KT M04/M13 A3023 RMK A01 T10371125  RH  051%=      5-min Rain = 0
KBO1 010924Z 05005KT M04/M13 A3023 RMK A01 T10371125  RH  051%=      5-min Rain = 0
KBO1 010925Z 05005KT M04/M13 A3024 RMK A01 T10381125  RH  051%=      5-min Rain = 0
KBO1 010926Z 05005KT M04/M13 A3024 RMK A01 T10381125  RH  051%=      5-min Rain = 0
KBO1 010927Z 05005KT M04/M13 A3024 RMK A01 T10391125  RH  051%=      5-min Rain = 0
KBO1 010928Z 05004KT M04/M13 A3023 RMK A01 T10391126  RH  051%=      5-min Rain = 0
KBO1 010929Z 05004KT M04/M13 A3023 RMK A01 T10391126  RH  051%=      5-min Rain = 0
KBO1 010930Z 05004KT M04/M13 A3023 RMK A01 T10391126  RH  051%=      5-min Rain = 0
KBO1 010931Z 04004KT M04/M13 A3023 RMK A01 T10391127  RH  051%=      5-min Rain = 0
KBO1 010932Z 04004KT M04/M13 A3023 RMK A01 T10381127  RH  050%=      5-min Rain = 0
KBO1 010933Z 04004KT M04/M13 A3023 RMK A01 T10371126  RH  050%=      5-min Rain = 0
KBO1 010934Z 04004KT M04/M13 A3023 RMK A01 T10371127  RH  050%=      5-min Rain = 0
KBO1 010935Z 04005KT M04/M13 A3023 RMK A01 T10371127  RH  050%=      5-min Rain = 0
KBO1 010936Z 04005KT M04/M13 A3023 RMK A01 T10371128  RH  049%=      5-min Rain = 0
KBO1 010937Z 04005KT M04/M13 A3023 RMK A01 T10371127  RH  049%=      5-min Rain = 0
KBO1 010938Z 04005KT M04/M13 A3023 RMK A01 T10371127  RH  050%=      5-min Rain = 0
KBO1 010939Z 04005KT M04/M13 A3023 RMK A01 T10371126  RH  050%=      5-min Rain = 0
KBO1 010940Z 04006KT M04/M13 A3023 RMK A01 T10371126  RH  050%=      5-min Rain = 0
KBO1 010941Z 04005KT M04/M13 A3023 RMK A01 T10381126  RH  050%=      5-min Rain = 0
KBO1 010942Z 04005KT M04/M13 A3023 RMK A01 T10381126  RH  050%=      5-min Rain = 0
KBO1 010943Z 04005KT M04/M13 A3023 RMK A01 T10381125  RH  051%=      5-min Rain = 0
KBO1 010944Z 04006KT M04/M13 A3023 RMK A01 T10381125  RH  051%=      5-min Rain = 0
KBO1 010945Z 03006KT M04/M13 A3023 RMK A01 T10381125  RH  051%=      5-min Rain = 0
KBO1 010946Z 03006KT M04/M13 A3023 RMK A01 T10391125  RH  051%=      5-min Rain = 0
KBO1 010947Z 03006KT M04/M13 A3023 RMK A01 T10401126  RH  051%=      5-min Rain = 0
KBO1 010948Z 03006KT M04/M13 A3023 RMK A01 T10411126  RH  052%=      5-min Rain = 0
KBO1 010949Z 03005KT M04/M13 A3022 RMK A01 T10421126  RH  052%=      5-min Rain = 0
KBO1 010950Z 03006KT M04/M13 A3022 RMK A01 T10421126  RH  052%=      5-min Rain = 0
KBO1 010951Z 02006KT M04/M13 A3022 RMK A01 T10431126  RH  052%=      5-min Rain = 0
KBO1 010952Z 02006KT M04/M13 A3022 RMK A01 T10441128  RH  052%=      5-min Rain = 0
KBO1 010953Z 02006KT M05/M13 A3023 RMK A01 T10461128  RH  053%=      5-min Rain = 0
KBO1 010954Z 01006KT M05/M13 A3023 RMK A01 T10481129  RH  053%=      5-min Rain = 0
KBO1 010955Z 01006KT M05/M13 A3023 RMK A01 T10491129  RH  054%=      5-min Rain = 0
KBO1 010956Z 01006KT M05/M13 A3023 RMK A01 T10511130  RH  054%=      5-min Rain = 0
KBO1 010957Z 01006KT M05/M13 A3023 RMK A01 T10511129  RH  054%=      5-min Rain = 0
KBO1 010958Z 01006KT M05/M13 A3023 RMK A01 T10511129  RH  054%=      5-min Rain = 0
KBO1 010959Z 01006KT M05/M13 A3023 RMK A01 T10521130  RH  055%=      5-min Rain = 0
KBO1 011000Z 01006KT M05/M13 A3023 RMK A01 T10531130  RH  055%=      5-min Rain = 0
KBO1 011001Z 01006KT M05/M13 A3023 RMK A01 T10541130  RH  055%=      5-min Rain = 0
KBO1 011002Z 00006KT M05/M13 A3022 RMK A01 T10541129  RH  055%=      5-min Rain = 0
KBO1 011003Z 00007KT M05/M13 A3022 RMK A01 T10541129  RH  056%=      5-min Rain = 0
KBO1 011004Z 00007KT M05/M13 A3022 RMK A01 T10541129  RH  056%=      5-min Rain = 0
KBO1 011005Z 00007KT M05/M13 A3022 RMK A01 T10541129  RH  056%=      5-min Rain = 0
KBO1 011006Z 36007KT M05/M13 A3022 RMK A01 T10541129  RH  056%=      5-min Rain = 0
KBO1 011007Z 36007KT M06/M13 A3022 RMK A01 T10551128  RH  056%=      5-min Rain = 0
KBO1 011008Z 36007KT M06/M13 A3022 RMK A01 T10551129  RH  056%=      5-min Rain = 0
KBO1 011009Z 36007KT M06/M13 A3022 RMK A01 T10561129  RH  056%=      5-min Rain = 0
KBO1 011010Z 35007KT M06/M13 A3022 RMK A01 T10551128  RH  057%=      5-min Rain = 0
KBO1 011011Z 35007KT M06/M13 A3022 RMK A01 T10561128  RH  057%=      5-min Rain = 0
KBO1 011012Z 34007KT M06/M13 A3022 RMK A01 T10561128  RH  057%=      5-min Rain = 0
KBO1 011013Z 35007KT M06/M13 A3022 RMK A01 T10571128  RH  057%=      5-min Rain = 0
KBO1 011014Z 35007KT M06/M13 A3022 RMK A01 T10581128  RH  058%=      5-min Rain = 0
KBO1 011015Z 35007KT M06/M13 A3022 RMK A01 T10581128  RH  058%=      5-min Rain = 0
KBO1 011016Z 34007KT M06/M13 A3022 RMK A01 T10581128  RH  058%=      5-min Rain = 0
KBO1 011017Z 34007KT M06/M13 A3022 RMK A01 T10591128  RH  058%=      5-min Rain = 0
KBO1 011018Z 34007KT M06/M13 A3022 RMK A01 T10601128  RH  058%=      5-min Rain = 0
KBO1 011019Z 34007KT M06/M13 A3022 RMK A01 T10601129  RH  059%=      5-min Rain = 0
KBO1 011020Z 34007KT M06/M13 A3022 RMK A01 T10601128  RH  059%=      5-min Rain = 0
KBO1 011021Z 34007KT M06/M13 A3022 RMK A01 T10601128  RH  059%=      5-min Rain = 0
KBO1 011022Z 33008KT M06/M13 A3022 RMK A01 T10611128  RH  059%=      5-min Rain = 0
KBO1 011023Z 33008KT M06/M13 A3022 RMK A01 T10611128  RH  059%=      5-min Rain = 0
KBO1 011024Z 33008KT M06/M13 A3022 RMK A01 T10621128  RH  060%=      5-min Rain = 0
KBO1 011025Z 33009KT M06/M13 A3022 RMK A01 T10621127  RH  060%=      5-min Rain = 0
KBO1 011026Z 33009KT M06/M13 A3022 RMK A01 T10621127  RH  060%=      5-min Rain = 0
KBO1 011027Z 33009KT M06/M13 A3022 RMK A01 T10621126  RH  060%=      5-min Rain = 0
KBO1 011028Z 33009KT M06/M13 A3022 RMK A01 T10621126  RH  061%=      5-min Rain = 0
KBO1 011029Z 33009KT M06/M13 A3022 RMK A01 T10621125  RH  061%=      5-min Rain = 0
KBO1 011030Z 33009KT M06/M13 A3022 RMK A01 T10611125  RH  061%=      5-min Rain = 0
KBO1 011031Z 33009KT M06/M12 A3022 RMK A01 T10611124  RH  061%=      5-min Rain = 0
KBO1 011032Z 33008KT M06/M12 A3022 RMK A01 T10601124  RH  061%=      5-min Rain = 0
KBO1 011033Z 33008KT M06/M12 A3023 RMK A01 T10601123  RH  061%=      5-min Rain = 0
KBO1 011034Z 34008KT M06/M12 A3023 RMK A01 T10601123  RH  061%=      5-min Rain = 0
KBO1 011035Z 34007KT M06/M12 A3023 RMK A01 T10591122  RH  061%=      5-min Rain = 0
KBO1 011036Z 33007KT M06/M12 A3023 RMK A01 T10581122  RH  061%=      5-min Rain = 0
KBO1 011037Z 33007KT M06/M12 A3023 RMK A01 T10581122  RH  060%=      5-min Rain = 0
KBO1 011038Z 33007KT M06/M12 A3023 RMK A01 T10571122  RH  060%=      5-min Rain = 0
KBO1 011039Z 33006KT M06/M12 A3023 RMK A01 T10571122  RH  060%=      5-min Rain = 0
KBO1 011040Z 34006KT M06/M12 A3024 RMK A01 T10561122  RH  060%=      5-min Rain = 0
KBO1 011041Z 34006KT M06/M12 A3024 RMK A01 T10561122  RH  060%=      5-min Rain = 0
KBO1 011042Z 34006KT M06/M12 A3024 RMK A01 T10561122  RH  060%=      5-min Rain = 0
KBO1 011043Z 34006KT M06/M12 A3024 RMK A01 T10561122  RH  060%=      5-min Rain = 0
KBO1 011044Z 34006KT M06/M12 A3024 RMK A01 T10561122  RH  060%=      5-min Rain = 0
KBO1 011045Z 34006KT M06/M12 A3024 RMK A01 T10561122  RH  060%=      5-min Rain = 0
KBO1 011046Z 34006KT M06/M12 A3024 RMK A01 T10561122  RH  060%=      5-min Rain = 0
KBO1 011047Z 34005KT M06/M12 A3024 RMK A01 T10561121  RH  060%=      5-min Rain = 0
KBO1 011048Z 34005KT M06/M12 A3024 RMK A01 T10561121  RH  060%=      5-min Rain = 0
KBO1 011049Z 35005KT M06/M12 A3024 RMK A01 T10571122  RH  060%=      5-min Rain = 0
KBO1 011050Z 35005KT M06/M12 A3025 RMK A01 T10561121  RH  060%=      5-min Rain = 0
KBO1 011051Z 35004KT M06/M12 A3025 RMK A01 T10561121  RH  060%=      5-min Rain = 0
KBO1 011052Z 35004KT M06/M12 A3025 RMK A01 T10561121  RH  060%=      5-min Rain = 0
KBO1 011053Z 00003KT M06/M12 A3025 RMK A01 T10571121  RH  060%=      5-min Rain = 0
KBO1 011054Z 01003KT M06/M12 A3025 RMK A01 T10561121  RH  060%=      5-min Rain = 0
KBO1 011055Z 01003KT M06/M12 A3025 RMK A01 T10561121  RH  060%=      5-min Rain = 0
KBO1 011056Z 02003KT M06/M12 A3025 RMK A01 T10571121  RH  060%=      5-min Rain = 0
KBO1 011057Z 02003KT M06/M12 A3026 RMK A01 T10561121  RH  060%=      5-min Rain = 0
KBO1 011058Z 02003KT M06/M12 A3026 RMK A01 T10561121  RH  060%=      5-min Rain = 0
KBO1 011059Z 02003KT M06/M12 A3026 RMK A01 T10551121  RH  060%=      5-min Rain = 0
KBO1 011100Z 01003KT M06/M12 A3026 RMK A01 T10551121  RH  060%=      5-min Rain = 0
KBO1 011101Z 00004KT M06/M12 A3026 RMK A01 T10551121  RH  060%=      5-min Rain = 0
KBO1 011102Z 00004KT M05/M12 A3026 RMK A01 T10541120  RH  060%=      5-min Rain = 0
KBO1 011103Z 00004KT M05/M12 A3026 RMK A01 T10531120  RH  059%=      5-min Rain = 0
KBO1 011104Z 00004KT M05/M12 A3026 RMK A01 T10521120  RH  059%=      5-min Rain = 0
KBO1 011105Z 36004KT M05/M12 A3026 RMK A01 T10511120  RH  059%=      5-min Rain = 0
KBO1 011106Z 35004KT M05/M12 A3026 RMK A01 T10511120  RH  058%=      5-min Rain = 0
KBO1 011107Z 35003KT M05/M12 A3026 RMK A01 T10501120  RH  058%=      5-min Rain = 0
KBO1 011108Z 35003KT M05/M12 A3027 RMK A01 T10501120  RH  058%=      5-min Rain = 0
KBO1 011109Z 35003KT M05/M12 A3027 RMK A01 T10491120  RH  058%=      5-min Rain = 0
KBO1 011110Z 35003KT M05/M12 A3027 RMK A01 T10491120  RH  058%=      5-min Rain = 0
KBO1 011111Z 35003KT M05/M12 A3027 RMK A01 T10491119  RH  058%=      5-min Rain = 0
KBO1 011112Z 35003KT M05/M12 A3027 RMK A01 T10481119  RH  058%=      5-min Rain = 0
KBO1 011113Z 35004KT M05/M12 A3027 RMK A01 T10471119  RH  057%=      5-min Rain = 0
KBO1 011114Z 35004KT M05/M12 A3027 RMK A01 T10461119  RH  057%=      5-min Rain = 0
KBO1 011115Z 34004KT M05/M12 A3027 RMK A01 T10461118  RH  057%=      5-min Rain = 0
KBO1 011116Z 34004KT M05/M12 A3027 RMK A01 T10451118  RH  057%=      5-min Rain = 0
KBO1 011117Z 34004KT M05/M12 A3027 RMK A01 T10451118  RH  057%=      5-min Rain = 0
KBO1 011118Z 34004KT M05/M12 A3027 RMK A01 T10451118  RH  057%=      5-min Rain = 0
KBO1 011119Z 34004KT M05/M12 A3027 RMK A01 T10461119  RH  057%=      5-min Rain = 0
KBO1 011120Z 34003KT M05/M12 A3027 RMK A01 T10481119  RH  057%=      5-min Rain = 0
KBO1 011121Z 34003KT M05/M12 A3028 RMK A01 T10491119  RH  058%=      5-min Rain = 0
KBO1 011122Z 34003KT M05/M12 A3028 RMK A01 T10491118  RH  059%=      5-min Rain = 0
KBO1 011123Z 33003KT M05/M12 A3028 RMK A01 T10501118  RH  059%=      5-min Rain = 0
KBO1 011124Z 34004KT M05/M12 A3028 RMK A01 T10511118  RH  059%=      5-min Rain = 0
KBO1 011125Z 34003KT M05/M12 A3028 RMK A01 T10511118  RH  059%=      5-min Rain = 0
KBO1 011126Z 34003KT M05/M12 A3028 RMK A01 T10501117  RH  059%=      5-min Rain = 0
KBO1 011127Z 34003KT M05/M12 A3028 RMK A01 T10491117  RH  059%=      5-min Rain = 0
KBO1 011128Z 35004KT M05/M12 A3028 RMK A01 T10481117  RH  058%=      5-min Rain = 0
KBO1 011129Z 35004KT M05/M12 A3028 RMK A01 T10461117  RH  058%=      5-min Rain = 0
KBO1 011130Z 36004KT M05/M12 A3028 RMK A01 T10461117  RH  058%=      5-min Rain = 0
KBO1 011131Z 00004KT M05/M12 A3028 RMK A01 T10461117  RH  057%=      5-min Rain = 0
KBO1 011132Z 00004KT M05/M12 A3028 RMK A01 T10461117  RH  057%=      5-min Rain = 0
KBO1 011133Z 00004KT M05/M12 A3028 RMK A01 T10451117  RH  057%=      5-min Rain = 0
KBO1 011134Z 00004KT M05/M12 A3028 RMK A01 T10451117  RH  057%=      5-min Rain = 0
KBO1 011135Z 00004KT M05/M12 A3028 RMK A01 T10451117  RH  057%=      5-min Rain = 0
KBO1 011136Z 36004KT M05/M12 A3028 RMK A01 T10461118  RH  057%=      5-min Rain = 0
KBO1 011137Z 36005KT M05/M12 A3028 RMK A01 T10461118  RH  058%=      5-min Rain = 0
KBO1 011138Z 36004KT M05/M12 A3028 RMK A01 T10471117  RH  058%=      5-min Rain = 0
KBO1 011139Z 35004KT M05/M12 A3029 RMK A01 T10471117  RH  058%=      5-min Rain = 0
KBO1 011140Z 34004KT M05/M12 A3029 RMK A01 T10471116  RH  059%=      5-min Rain = 0
KBO1 011141Z 34004KT M05/M12 A3029 RMK A01 T10481116  RH  059%=      5-min Rain = 0
KBO1 011142Z 34004KT M05/M12 A3029 RMK A01 T10491115  RH  060%=      5-min Rain = 0
KBO1 011143Z 34004KT M05/M12 A3029 RMK A01 T10491115  RH  060%=      5-min Rain = 0
KBO1 011144Z 33004KT M05/M11 A3029 RMK A01 T10501114  RH  061%=      5-min Rain = 0
KBO1 011145Z 33004KT M05/M11 A3029 RMK A01 T10501114  RH  061%=      5-min Rain = 0
KBO1 011146Z 32005KT M05/M11 A3029 RMK A01 T10501113  RH  061%=      5-min Rain = 0
KBO1 011147Z 32005KT M05/M11 A3029 RMK A01 T10501113  RH  061%=      5-min Rain = 0
KBO1 011148Z 32005KT M05/M11 A3029 RMK A01 T10501113  RH  062%=      5-min Rain = 0
KBO1 011149Z 32006KT M05/M11 A3029 RMK A01 T10511114  RH  061%=      5-min Rain = 0
KBO1 011150Z 32006KT M05/M11 A3029 RMK A01 T10511114  RH  061%=      5-min Rain = 0
KBO1 011151Z 32006KT M05/M12 A3029 RMK A01 T10511115  RH  061%=      5-min Rain = 0
KBO1 011152Z 32006KT M05/M12 A3029 RMK A01 T10521115  RH  061%=      5-min Rain = 0
KBO1 011153Z 32006KT M05/M12 A3029 RMK A01 T10521116  RH  061%=      5-min Rain = 0
KBO1 011154Z 32006KT M05/M12 A3029 RMK A01 T10521117  RH  061%=      5-min Rain = 0
KBO1 011155Z 32007KT M05/M12 A3029 RMK A01 T10531117  RH  060%=      5-min Rain = 0
KBO1 011156Z 31007KT M05/M12 A3029 RMK A01 T10531118  RH  060%=      5-min Rain = 0
KBO1 011157Z 31008KT M05/M12 A3029 RMK A01 T10541118  RH  060%=      5-min Rain = 0
KBO1 011158Z 31008KT M05/M12 A3029 RMK A01 T10541119  RH  060%=      5-min Rain = 0
KBO1 011159Z 31008KT M05/M12 A3029 RMK A01 T10541119  RH  060%=      5-min Rain = 0
KBO1 011200Z 31007KT M05/M12 A3029 RMK A01 T10541119  RH  060%=      5-min Rain = 0
KBO1 011201Z 32007KT M06/M12 A303 RMK A01 T10551120  RH  060%=      5-min Rain = 0
KBO1 011202Z 31007KT M06/M12 A303 RMK A01 T10551120  RH  060%=      5-min Rain = 0
KBO1 011203Z 32007KT M06/M12 A303 RMK A01 T10551121  RH  060%=      5-min Rain = 0
KBO1 011204Z 31007KT M06/M12 A303 RMK A01 T10561121  RH  060%=      5-min Rain = 0
KBO1 011205Z 31007KT M06/M12 A303 RMK A01 T10561121  RH  060%=      5-min Rain = 0
KBO1 011206Z 31007KT M06/M12 A303 RMK A01 T10571121  RH  060%=      5-min Rain = 0
KBO1 011207Z 31007KT M06/M12 A303 RMK A01 T10571121  RH  061%=      5-min Rain = 0
KBO1 011208Z 31007KT M06/M12 A303 RMK A01 T10581121  RH  061%=      5-min Rain = 0
KBO1 011209Z 31008KT M06/M12 A303 RMK A01 T10591121  RH  061%=      5-min Rain = 0
KBO1 011210Z 31007KT M06/M12 A303 RMK A01 T10591121  RH  062%=      5-min Rain = 0
KBO1 011211Z 31008KT M06/M12 A303 RMK A01 T10591121  RH  062%=      5-min Rain = 0
KBO1 011212Z 31008KT M06/M12 A303 RMK A01 T10601121  RH  062%=      5-min Rain = 0
KBO1 011213Z 31007KT M06/M12 A303 RMK A01 T10611121  RH  062%=      5-min Rain = 0
KBO1 011214Z 31007KT M06/M12 A303 RMK A01 T10611121  RH  063%=      5-min Rain = 0
KBO1 011215Z 31008KT M06/M12 A303 RMK A01 T10611121  RH  063%=      5-min Rain = 0
KBO1 011216Z 31008KT M06/M12 A303 RMK A01 T10621121  RH  063%=      5-min Rain = 0
KBO1 011217Z 31008KT M06/M12 A303 RMK A01 T10621121  RH  063%=      5-min Rain = 0
KBO1 011218Z 31008KT M06/M12 A303 RMK A01 T10621121  RH  063%=      5-min Rain = 0
KBO1 011219Z 31007KT M06/M12 A303 RMK A01 T10621120  RH  063%=      5-min Rain = 0
KBO1 011220Z 31007KT M06/M12 A303 RMK A01 T10621121  RH  063%=      5-min Rain = 0
KBO1 011221Z 31007KT M06/M12 A303 RMK A01 T10621121  RH  063%=      5-min Rain = 0
KBO1 011222Z 31007KT M06/M12 A303 RMK A01 T10621121  RH  063%=      5-min Rain = 0
KBO1 011223Z 31007KT M06/M12 A303 RMK A01 T10621121  RH  063%=      5-min Rain = 0
KBO1 011224Z 30007KT M06/M12 A303 RMK A01 T10621122  RH  063%=      5-min Rain = 0
KBO1 011225Z 30007KT M06/M12 A303 RMK A01 T10621122  RH  063%=      5-min Rain = 0
KBO1 011226Z 30007KT M06/M12 A303 RMK A01 T10621122  RH  063%=      5-min Rain = 0
KBO1 011227Z 30007KT M06/M12 A3031 RMK A01 T10621122  RH  063%=      5-min Rain = 0
KBO1 011228Z 30007KT M06/M12 A3031 RMK A01 T10631122  RH  063%=      5-min Rain = 0
KBO1 011229Z 29006KT M06/M12 A3031 RMK A01 T10631122  RH  063%=      5-min Rain = 0
KBO1 011230Z 29005KT M06/M12 A3031 RMK A01 T10641123  RH  063%=      5-min Rain = 0
KBO1 011231Z 29005KT M07/M12 A3031 RMK A01 T10651123  RH  063%=      5-min Rain = 0
KBO1 011232Z 29005KT M07/M12 A3031 RMK A01 T10661124  RH  063%=      5-min Rain = 0
KBO1 011233Z 30005KT M07/M12 A3031 RMK A01 T10671124  RH  064%=      5-min Rain = 0
KBO1 011234Z 30006KT M07/M12 A3031 RMK A01 T10681124  RH  064%=      5-min Rain = 0
KBO1 011235Z 30006KT M07/M12 A3031 RMK A01 T10681124  RH  064%=      5-min Rain = 0
KBO1 011236Z 31006KT M07/M12 A3031 RMK A01 T10681124  RH  064%=      5-min Rain = 0
KBO1 011237Z 31006KT M07/M13 A3031 RMK A01 T10681125  RH  064%=      5-min Rain = 0
KBO1 011238Z 31007KT M07/M13 A3031 RMK A01 T10681125  RH  064%=      5-min Rain = 0
KBO1 011239Z 31007KT M07/M13 A3031 RMK A01 T10691125  RH  064%=      5-min Rain = 0
KBO1 011240Z 30007KT M07/M13 A3031 RMK A01 T10691126  RH  064%=      5-min Rain = 0
KBO1 011241Z 30007KT M07/M13 A3031 RMK A01 T10701126  RH  064%=      5-min Rain = 0
KBO1 011242Z 30007KT M07/M13 A3031 RMK A01 T10701126  RH  065%=      5-min Rain = 0
KBO1 011243Z 30007KT M07/M13 A3031 RMK A01 T10711126  RH  065%=      5-min Rain = 0
KBO1 011244Z 31007KT M07/M13 A3031 RMK A01 T10711126  RH  065%=      5-min Rain = 0
KBO1 011245Z 31007KT M07/M13 A3031 RMK A01 T10711126  RH  065%=      5-min Rain = 0
KBO1 011246Z 31007KT M07/M13 A3031 RMK A01 T10711126  RH  065%=      5-min Rain = 0
KBO1 011247Z 31007KT M07/M13 A3031 RMK A01 T10711126  RH  065%=      5-min Rain = 0
KBO1 011248Z 31007KT M07/M13 A3031 RMK A01 T10711127  RH  065%=      5-min Rain = 0
KBO1 011249Z 31007KT M07/M13 A3031 RMK A01 T10701126  RH  064%=      5-min Rain = 0
KBO1 011250Z 31008KT M07/M13 A3031 RMK A01 T10701126  RH  064%=      5-min Rain = 0
KBO1 011251Z 31008KT M07/M13 A3031 RMK A01 T10701127  RH  064%=      5-min Rain = 0
KBO1 011252Z 31008KT M07/M13 A3031 RMK A01 T10711127  RH  064%=      5-min Rain = 0
KBO1 011253Z 31008KT M07/M13 A3031 RMK A01 T10711127  RH  064%=      5-min Rain = 0
KBO1 011254Z 31008KT M07/M13 A3031 RMK A01 T10711127  RH  064%=      5-min Rain = 0
KBO1 011255Z 31008KT M07/M13 A3031 RMK A01 T10721128  RH  064%=      5-min Rain = 0
KBO1 011256Z 31009KT M07/M13 A3031 RMK A01 T10721128  RH  065%=      5-min Rain = 0
KBO1 011257Z 31009KT M07/M13 A3031 RMK A01 T10731128  RH  065%=      5-min Rain = 0
KBO1 011258Z 31010KT M07/M13 A3031 RMK A01 T10731128  RH  065%=      5-min Rain = 0
KBO1 011259Z 31010KT M07/M13 A3032 RMK A01 T10731128  RH  065%=      5-min Rain = 0
KBO1 011300Z 31010KT M07/M13 A3032 RMK A01 T10741129  RH  065%=      5-min Rain = 0
KBO1 011301Z 31010KT M07/M13 A3032 RMK A01 T10741129  RH  065%=      5-min Rain = 0
KBO1 011302Z 31009KT M08/M13 A3032 RMK A01 T10751130  RH  065%=      5-min Rain = 0
KBO1 011303Z 31009KT M08/M13 A3032 RMK A01 T10761130  RH  065%=      5-min Rain = 0
KBO1 011304Z 31009KT M08/M13 A3032 RMK A01 T10761130  RH  065%=      5-min Rain = 0
KBO1 011305Z 32009KT M08/M13 A3032 RMK A01 T10771130  RH  065%=      5-min Rain = 0
KBO1 011306Z 32009KT M08/M13 A3032 RMK A01 T10771130  RH  066%=      5-min Rain = 0
KBO1 011307Z 32009KT M08/M13 A3032 RMK A01 T10781131  RH  066%=      5-min Rain = 0
KBO1 011308Z 32009KT M08/M13 A3032 RMK A01 T10781130  RH  066%=      5-min Rain = 0
KBO1 011309Z 32009KT M08/M13 A3032 RMK A01 T10781130  RH  066%=      5-min Rain = 0
KBO1 011310Z 32009KT M08/M13 A3032 RMK A01 T10781130  RH  066%=      5-min Rain = 0
KBO1 011311Z 31009KT M08/M13 A3032 RMK A01 T10791130  RH  066%=      5-min Rain = 0
KBO1 011312Z 31009KT M08/M13 A3032 RMK A01 T10781130  RH  067%=      5-min Rain = 0
KBO1 011313Z 31009KT M08/M13 A3032 RMK A01 T10781130  RH  067%=      5-min Rain = 0
KBO1 011314Z 31009KT M08/M13 A3032 RMK A01 T10791130  RH  067%=      5-min Rain = 0
KBO1 011315Z 31009KT M08/M13 A3032 RMK A01 T10781129  RH  067%=      5-min Rain = 0
KBO1 011316Z 31009KT M08/M13 A3032 RMK A01 T10771129  RH  066%=      5-min Rain = 0
KBO1 011317Z 31008KT M08/M13 A3032 RMK A01 T10771129  RH  066%=      5-min Rain = 0
KBO1 011318Z 31008KT M08/M13 A3032 RMK A01 T10771130  RH  066%=      5-min Rain = 0
KBO1 011319Z 31008KT M08/M13 A3032 RMK A01 T10781130  RH  066%=      5-min Rain = 0
KBO1 011320Z 31008KT M08/M13 A3032 RMK A01 T10791131  RH  066%=      5-min Rain = 0
KBO1 011321Z 31008KT M08/M13 A3032 RMK A01 T10801131  RH  067%=      5-min Rain = 0
KBO1 011322Z 31009KT M08/M13 A3032 RMK A01 T10811132  RH  067%=      5-min Rain = 0
KBO1 011323Z 31008KT M08/M13 A3032 RMK A01 T10811132  RH  067%=      5-min Rain = 0
KBO1 011324Z 31008KT M08/M13 A3032 RMK A01 T10821132  RH  067%=      5-min Rain = 0
KBO1 011325Z 31009KT M08/M13 A3032 RMK A01 T10841133  RH  067%=      5-min Rain = 0
KBO1 011326Z 31009KT M08/M13 A3033 RMK A01 T10841133  RH  068%=      5-min Rain = 0
KBO1 011327Z 31009KT M08/M13 A3033 RMK A01 T10841133  RH  068%=      5-min Rain = 0
KBO1 011328Z 31009KT M08/M13 A3033 RMK A01 T10841132  RH  068%=      5-min Rain = 0
KBO1 011329Z 31009KT M09/M13 A3033 RMK A01 T10851133  RH  068%=      5-min Rain = 0
KBO1 011330Z 31009KT M08/M13 A3033 RMK A01 T10841132  RH  068%=      5-min Rain = 0
KBO1 011331Z 31009KT M08/M13 A3033 RMK A01 T10841132  RH  068%=      5-min Rain = 0
KBO1 011332Z 31009KT M08/M13 A3033 RMK A01 T10831132  RH  068%=      5-min Rain = 0
KBO1 011333Z 31009KT M08/M13 A3033 RMK A01 T10831132  RH  068%=      5-min Rain = 0
KBO1 011334Z 31010KT M08/M13 A3033 RMK A01 T10831131  RH  068%=      5-min Rain = 0
KBO1 011335Z 31010KT M08/M13 A3033 RMK A01 T10821131  RH  068%=      5-min Rain = 0
KBO1 011336Z 31010KT M08/M13 A3033 RMK A01 T10821131  RH  068%=      5-min Rain = 0
KBO1 011337Z 31010KT M08/M13 A3033 RMK A01 T10821130  RH  068%=      5-min Rain = 0
KBO1 011338Z 31010KT M08/M13 A3033 RMK A01 T10801129  RH  068%=      5-min Rain = 0
KBO1 011339Z 31009KT M08/M13 A3033 RMK A01 T10791129  RH  068%=      5-min Rain = 0
KBO1 011340Z 31009KT M08/M13 A3033 RMK A01 T10781128  RH  067%=      5-min Rain = 0
KBO1 011341Z 31009KT M08/M13 A3033 RMK A01 T10771128  RH  067%=      5-min Rain = 0
KBO1 011342Z 31010KT M08/M13 A3033 RMK A01 T10761127  RH  067%=      5-min Rain = 0
KBO1 011343Z 31010KT M08/M13 A3033 RMK A01 T10761127  RH  066%=      5-min Rain = 0
KBO1 011344Z 31010KT M08/M13 A3033 RMK A01 T10751127  RH  066%=      5-min Rain = 0
KBO1 011345Z 31009KT M07/M13 A3033 RMK A01 T10741127  RH  066%=      5-min Rain = 0
KBO1 011346Z 31009KT M07/M13 A3033 RMK A01 T10731126  RH  066%=      5-min Rain = 0
KBO1 011347Z 31009KT M07/M13 A3033 RMK A01 T10731127  RH  065%=      5-min Rain = 0
KBO1 011348Z 31009KT M07/M13 A3033 RMK A01 T10731127  RH  065%=      5-min Rain = 0
KBO1 011349Z 31010KT M07/M13 A3034 RMK A01 T10721126  RH  065%=      5-min Rain = 0
KBO1 011350Z 31010KT M07/M13 A3034 RMK A01 T10721126  RH  065%=      5-min Rain = 0
KBO1 011351Z 31010KT M07/M13 A3034 RMK A01 T10721126  RH  065%=      5-min Rain = 0
KBO1 011352Z 31009KT M07/M13 A3034 RMK A01 T10721126  RH  065%=      5-min Rain = 0
KBO1 011353Z 31009KT M07/M13 A3034 RMK A01 T10721126  RH  065%=      5-min Rain = 0
KBO1 011354Z 31009KT M07/M13 A3034 RMK A01 T10711126  RH  065%=      5-min Rain = 0
KBO1 011355Z 31009KT M07/M13 A3034 RMK A01 T10711126  RH  065%=      5-min Rain = 0
KBO1 011356Z 31009KT M07/M13 A3034 RMK A01 T10711126  RH  065%=      5-min Rain = 0
KBO1 011357Z 30009KT M07/M13 A3034 RMK A01 T10691125  RH  065%=      5-min Rain = 0
KBO1 011358Z 30009KT M07/M13 A3035 RMK A01 T10691125  RH  064%=      5-min Rain = 0
KBO1 011359Z 30008KT M07/M12 A3035 RMK A01 T10671124  RH  064%=      5-min Rain = 0
KBO1 011400Z 30008KT M07/M12 A3035 RMK A01 T10661124  RH  064%=      5-min Rain = 0
KBO1 011401Z 30009KT M07/M12 A3035 RMK A01 T10661124  RH  063%=      5-min Rain = 0
KBO1 011402Z 30009KT M07/M12 A3035 RMK A01 T10651124  RH  063%=      5-min Rain = 0
KBO1 011403Z 30009KT M07/M12 A3035 RMK A01 T10651124  RH  063%=      5-min Rain = 0
KBO1 011404Z 30009KT M07/M12 A3035 RMK A01 T10651124  RH  063%=      5-min Rain = 0
KBO1 011405Z 31009KT M06/M12 A3035 RMK A01 T10641123  RH  063%=      5-min Rain = 0
KBO1 011406Z 30009KT M06/M12 A3035 RMK A01 T10641123  RH  063%=      5-min Rain = 0
KBO1 011407Z 30010KT M06/M12 A3035 RMK A01 T10631123  RH  063%=      5-min Rain = 0
KBO1 011408Z 30009KT M06/M12 A3035 RMK A01 T10621123  RH  062%=      5-min Rain = 0
KBO1 011409Z 30009KT M06/M12 A3035 RMK A01 T10621122  RH  062%=      5-min Rain = 0
KBO1 011410Z 31009KT M06/M12 A3035 RMK A01 T10621122  RH  062%=      5-min Rain = 0
KBO1 011411Z 31009KT M06/M12 A3035 RMK A01 T10611122  RH  062%=      5-min Rain = 0
KBO1 011412Z 31009KT M06/M12 A3035 RMK A01 T10611122  RH  062%=      5-min Rain = 0
KBO1 011413Z 31009KT M06/M12 A3035 RMK A01 T10601121  RH  062%=      5-min Rain = 0
KBO1 011414Z 31008KT M06/M12 A3035 RMK A01 T10601121  RH  062%=      5-min Rain = 0
KBO1 011415Z 31008KT M06/M12 A3036 RMK A01 T10591121  RH  061%=      5-min Rain = 0
KBO1 011416Z 31008KT M06/M12 A3036 RMK A01 T10581121  RH  061%=      5-min Rain = 0
KBO1 011417Z 31008KT M06/M12 A3036 RMK A01 T10581121  RH  061%=      5-min Rain = 0
KBO1 011418Z 31008KT M06/M12 A3036 RMK A01 T10581120  RH  061%=      5-min Rain = 0
KBO1 011419Z 31008KT M06/M12 A3036 RMK A01 T10571120  RH  061%=      5-min Rain = 0
KBO1 011420Z 31008KT M06/M12 A3036 RMK A01 T10561120  RH  061%=      5-min Rain = 0
KBO1 011421Z 31008KT M06/M12 A3036 RMK A01 T10561120  RH  061%=      5-min Rain = 0
KBO1 011422Z 31008KT M06/M12 A3036 RMK A01 T10561120  RH  061%=      5-min Rain = 0
KBO1 011423Z 31008KT M06/M12 A3036 RMK A01 T10561119  RH  061%=      5-min Rain = 0
KBO1 011424Z 31008KT M06/M12 A3036 RMK A01 T10551119  RH  061%=      5-min Rain = 0
KBO1 011425Z 31008KT M05/M12 A3036 RMK A01 T10541119  RH  060%=      5-min Rain = 0
KBO1 011426Z 31007KT M05/M12 A3036 RMK A01 T10541119  RH  060%=      5-min Rain = 0
KBO1 011427Z 31008KT M05/M12 A3036 RMK A01 T10531119  RH  060%=      5-min Rain = 0
KBO1 011428Z 31008KT M05/M12 A3036 RMK A01 T10521118  RH  060%=      5-min Rain = 0
KBO1 011429Z 31007KT M05/M12 A3036 RMK A01 T10521118  RH  060%=      5-min Rain = 0
KBO1 011430Z 30007KT M05/M12 A3036 RMK A01 T10521118  RH  060%=      5-min Rain = 0
KBO1 011431Z 31007KT M05/M12 A3036 RMK A01 T10511117  RH  060%=      5-min Rain = 0
KBO1 011432Z 30008KT M05/M12 A3036 RMK A01 T10491117  RH  059%=      5-min Rain = 0
KBO1 011433Z 30007KT M05/M12 A3036 RMK A01 T10481116  RH  059%=      5-min Rain = 0
KBO1 011434Z 30007KT M05/M12 A3036 RMK A01 T10471116  RH  059%=      5-min Rain = 0
KBO1 011435Z 31007KT M05/M12 A3036 RMK A01 T10461116  RH  058%=      5-min Rain = 0
KBO1 011436Z 30008KT M04/M12 A3036 RMK A01 T10441115  RH  058%=      5-min Rain = 0
KBO1 011437Z 31007KT M04/M11 A3036 RMK A01 T10431114  RH  057%=      5-min Rain = 0
KBO1 011438Z 31008KT M04/M11 A3036 RMK A01 T10401112  RH  057%=      5-min Rain = 0
KBO1 011439Z 30008KT M04/M11 A3036 RMK A01 T10371112  RH  056%=      5-min Rain = 0
KBO1 011440Z 31007KT M04/M11 A3036 RMK A01 T10361112  RH  055%=      5-min Rain = 0
KBO1 011441Z 31007KT M03/M11 A3037 RMK A01 T10331110  RH  055%=      5-min Rain = 0
KBO1 011442Z 31007KT M03/M11 A3037 RMK A01 T10311110  RH  054%=      5-min Rain = 0
KBO1 011443Z 31008KT M03/M11 A3037 RMK A01 T10291110  RH  054%=      5-min Rain = 0
KBO1 011444Z 31008KT M03/M11 A3037 RMK A01 T10281111  RH  053%=      5-min Rain = 0
KBO1 011445Z 31007KT M03/M11 A3037 RMK A01 T10271111  RH  052%=      5-min Rain = 0
KBO1 011446Z 31007KT M03/M11 A3036 RMK A01 T10271112  RH  052%=      5-min Rain = 0
KBO1 011447Z 31007KT M03/M11 A3036 RMK A01 T10251110  RH  052%=      5-min Rain = 0
KBO1 011448Z 31007KT M02/M11 A3036 RMK A01 T10241110  RH  052%=      5-min Rain = 0
KBO1 011449Z 31007KT M02/M11 A3037 RMK A01 T10231109  RH  052%=      5-min Rain = 0
KBO1 011450Z 31006KT M02/M11 A3037 RMK A01 T10221108  RH  051%=      5-min Rain = 0
KBO1 011451Z 31007KT M02/M11 A3037 RMK A01 T10191105  RH  052%=      5-min Rain = 0
KBO1 011452Z 32007KT M02/M11 A3037 RMK A01 T10171106  RH  051%=      5-min Rain = 0
KBO1 011453Z 31007KT M02/M11 A3037 RMK A01 T10161107  RH  050%=      5-min Rain = 0
KBO1 011454Z 32007KT M02/M11 A3037 RMK A01 T10151106  RH  050%=      5-min Rain = 0
KBO1 011455Z 31008KT M01/M11 A3037 RMK A01 T10131106  RH  049%=      5-min Rain = 0
KBO1 011456Z 31008KT M01/M11 A3037 RMK A01 T10121106  RH  049%=      5-min Rain = 0
KBO1 011457Z 31007KT M01/M11 A3037 RMK A01 T10111106  RH  049%=      5-min Rain = 0
KBO1 011458Z 32007KT M01/M11 A3037 RMK A01 T10101106  RH  048%=      5-min Rain = 0
KBO1 011459Z 31007KT M01/M11 A3037 RMK A01 T10091106  RH  048%=      5-min Rain = 0
KBO1 011500Z 31007KT M01/M11 A3037 RMK A01 T10071105  RH  048%=      5-min Rain = 0
KBO1 011501Z 31007KT M01/M11 A3037 RMK A01 T10061105  RH  047%=      5-min Rain = 0
KBO1 011502Z 31007KT M00/M11 A3038 RMK A01 T10041105  RH  047%=      5-min Rain = 0
KBO1 011503Z 31008KT M00/M11 A3038 RMK A01 T10041106  RH  046%=      5-min Rain = 0
KBO1 011504Z 31008KT M00/M11 A3038 RMK A01 T10031107  RH  046%=      5-min Rain = 0
KBO1 011505Z 31007KT M00/M11 A3038 RMK A01 T10031107  RH  045%=      5-min Rain = 0
KBO1 011506Z 31008KT M00/M11 A3038 RMK A01 T10021106  RH  045%=      5-min Rain = 0
KBO1 011507Z 32007KT M00/M11 A3038 RMK A01 T10021107  RH  045%=      5-min Rain = 0
KBO1 011508Z 31007KT 00/11 A3038 RMK A01 T00-00-105  RH  045%=      5-min Rain = 0
KBO1 011509Z 31007KT 00/M11 A3038 RMK A01 T00011105  RH  045%=      5-min Rain = 0
KBO1 011510Z 31008KT 00/M11 A3038 RMK A01 T00031105  RH  044%=      5-min Rain = 0
KBO1 011511Z 32007KT 00/M11 A3038 RMK A01 T00031107  RH  044%=      5-min Rain = 0
KBO1 011512Z 31007KT 00/M11 A3038 RMK A01 T00031106  RH  044%=      5-min Rain = 0
KBO1 011513Z 32008KT 01/M11 A3038 RMK A01 T00051105  RH  043%=      5-min Rain = 0
KBO1 011514Z 32007KT 01/M11 A3038 RMK A01 T00061106  RH  043%=      5-min Rain = 0
KBO1 011515Z 32006KT 01/M11 A3038 RMK A01 T00061107  RH  043%=      5-min Rain = 0
KBO1 011516Z 32006KT 01/M11 A3038 RMK A01 T00061106  RH  043%=      5-min Rain = 0
KBO1 011517Z 32005KT 01/M11 A3038 RMK A01 T00081106  RH  043%=      5-min Rain = 0
KBO1 011518Z 32007KT 01/M11 A3038 RMK A01 T00091106  RH  042%=      5-min Rain = 0
KBO1 011519Z 32007KT 01/M11 A3038 RMK A01 T00101106  RH  042%=      5-min Rain = 0
KBO1 011520Z 33007KT 01/M11 A3038 RMK A01 T00101107  RH  041%=      5-min Rain = 0
KBO1 011521Z 32006KT 01/M11 A3038 RMK A01 T00111108  RH  041%=      5-min Rain = 0
KBO1 011522Z 32006KT 01/M11 A3038 RMK A01 T00121106  RH  041%=      5-min Rain = 0
KBO1 011523Z 33007KT 01/M10 A3038 RMK A01 T00141104  RH  041%=      5-min Rain = 0
KBO1 011524Z 33007KT 02/M11 A3039 RMK A01 T00151106  RH  040%=      5-min Rain = 0
KBO1 011525Z 34008KT 02/M11 A3039 RMK A01 T00151108  RH  040%=      5-min Rain = 0
KBO1 011526Z 33007KT 01/M11 A3039 RMK A01 T00141109  RH  040%=      5-min Rain = 0
KBO1 011527Z 34007KT 01/M11 A3039 RMK A01 T00141108  RH  040%=      5-min Rain = 0
KBO1 011528Z 33007KT 02/M11 A3039 RMK A01 T00151108  RH  039%=      5-min Rain = 0
KBO1 011529Z 33007KT 01/M11 A3039 RMK A01 T00141110  RH  039%=      5-min Rain = 0
KBO1 011530Z 33007KT 01/M11 A3039 RMK A01 T00141109  RH  039%=      5-min Rain = 0
KBO1 011531Z 32007KT 02/M11 A3039 RMK A01 T00161108  RH  039%=      5-min Rain = 0
KBO1 011532Z 33008KT 02/M11 A3039 RMK A01 T00171108  RH  039%=      5-min Rain = 0
KBO1 011533Z 34008KT 02/M11 A3039 RMK A01 T00171109  RH  039%=      5-min Rain = 0
KBO1 011534Z 32007KT 02/M11 A3039 RMK A01 T00171110  RH  038%=      5-min Rain = 0
KBO1 011535Z 33008KT 02/M11 A3039 RMK A01 T00171109  RH  039%=      5-min Rain = 0
KBO1 011536Z 34007KT 02/M11 A3039 RMK A01 T00191108  RH  038%=      5-min Rain = 0
KBO1 011537Z 34007KT 02/M11 A3039 RMK A01 T00191109  RH  038%=      5-min Rain = 0
KBO1 011538Z 34006KT 02/M11 A3039 RMK A01 T00201109  RH  038%=      5-min Rain = 0
KBO1 011539Z 35005KT 02/M11 A3039 RMK A01 T00201109  RH  038%=      5-min Rain = 0
KBO1 011540Z 33006KT 02/M11 A3039 RMK A01 T00201110  RH  038%=      5-min Rain = 0
KBO1 011541Z 33009KT 02/M11 A3039 RMK A01 T00201110  RH  037%=      5-min Rain = 0
KBO1 011542Z 33006KT 02/M11 A3039 RMK A01 T00201110  RH  037%=      5-min Rain = 0
KBO1 011543Z 33007KT 02/M11 A3039 RMK A01 T00211109  RH  038%=      5-min Rain = 0
KBO1 011544Z 34008KT 02/M11 A3039 RMK A01 T00221109  RH  037%=      5-min Rain = 0
KBO1 011545Z 33008KT 02/M11 A3039 RMK A01 T00231108  RH  037%=      5-min Rain = 0
KBO1 011546Z 33009KT 02/M11 A3039 RMK A01 T00241108  RH  037%=      5-min Rain = 0
KBO1 011547Z 34007KT 02/M11 A3039 RMK A01 T00241110  RH  037%=      5-min Rain = 0
KBO1 011548Z 34006KT 02/M11 A3039 RMK A01 T00231110  RH  037%=      5-min Rain = 0
KBO1 011549Z 34007KT 03/M11 A304 RMK A01 T00261106  RH  037%=      5-min Rain = 0
KBO1 011550Z 33007KT 03/M11 A304 RMK A01 T00271109  RH  036%=      5-min Rain = 0
KBO1 011551Z 33007KT 03/M11 A304 RMK A01 T00261110  RH  036%=      5-min Rain = 0
KBO1 011552Z 35008KT 03/M11 A3039 RMK A01 T00281108  RH  036%=      5-min Rain = 0
KBO1 011553Z 33010KT 03/M11 A3039 RMK A01 T00291108  RH  036%=      5-min Rain = 0
KBO1 011554Z 32008KT 03/M11 A3039 RMK A01 T00281111  RH  035%=      5-min Rain = 0
KBO1 011555Z 34008KT 03/M11 A304 RMK A01 T00281109  RH  036%=      5-min Rain = 0
KBO1 011556Z 34006KT 03/M11 A304 RMK A01 T00291110  RH  035%=      5-min Rain = 0
KBO1 011557Z 34007KT 03/M11 A304 RMK A01 T00311108  RH  035%=      5-min Rain = 0
KBO1 011558Z 34007KT 03/M11 A304 RMK A01 T00321110  RH  035%=      5-min Rain = 0
KBO1 011559Z 35008KT 03/M11 A304 RMK A01 T00321109  RH  035%=      5-min Rain = 0
KBO1 011600Z 35009KT 03/M11 A304 RMK A01 T00331109  RH  034%=      5-min Rain = 0
KBO1 011601Z 33008KT 03/M11 A304 RMK A01 T00311111  RH  034%=      5-min Rain = 0
KBO1 011602Z 35006KT 03/M11 A304 RMK A01 T00311111  RH  034%=      5-min Rain = 0
KBO1 011603Z 34007KT 03/M11 A304 RMK A01 T00311110  RH  035%=      5-min Rain = 0
KBO1 011604Z 36008KT 03/M11 A304 RMK A01 T00331108  RH  035%=      5-min Rain = 0
KBO1 011605Z 34009KT 03/M11 A304 RMK A01 T00331110  RH  034%=      5-min Rain = 0
KBO1 011606Z 34007KT 03/M11 A304 RMK A01 T00321111  RH  034%=      5-min Rain = 0
KBO1 011607Z 35006KT 03/M11 A304 RMK A01 T00331109  RH  034%=      5-min Rain = 0
KBO1 011608Z 34007KT 04/M11 A304 RMK A01 T00351110  RH  034%=      5-min Rain = 0
KBO1 011609Z 33009KT 03/M11 A304 RMK A01 T00331112  RH  034%=      5-min Rain = 0
KBO1 011610Z 33008KT 03/M11 A304 RMK A01 T00311112  RH  034%=      5-min Rain = 0
KBO1 011611Z 34007KT 03/M11 A304 RMK A01 T00301112  RH  034%=      5-min Rain = 0
KBO1 011612Z 34008KT 03/M11 A304 RMK A01 T00311111  RH  034%=      5-min Rain = 0
KBO1 011613Z 33006KT 03/M11 A304 RMK A01 T00311113  RH  034%=      5-min Rain = 0
KBO1 011614Z 35009KT 03/M11 A304 RMK A01 T00301112  RH  034%=      5-min Rain = 0
KBO1 011615Z 33005KT 03/M11 A304 RMK A01 T00311111  RH  034%=      5-min Rain = 0
KBO1 011616Z 33006KT 03/M11 A304 RMK A01 T00321111  RH  034%=      5-min Rain = 0
KBO1 011617Z 33008KT 03/M11 A304 RMK A01 T00341109  RH  034%=      5-min Rain = 0
KBO1 011618Z 33008KT 03/M11 A304 RMK A01 T00341111  RH  034%=      5-min Rain = 0
KBO1 011619Z 35008KT 04/M11 A304 RMK A01 T00351110  RH  034%=      5-min Rain = 0
KBO1 011620Z 35007KT 04/M11 A3041 RMK A01 T00351113  RH  033%=      5-min Rain = 0
KBO1 011621Z 34006KT 03/M12 A3041 RMK A01 T00321115  RH  033%=      5-min Rain = 0
KBO1 011622Z 33008KT 03/M11 A3041 RMK A01 T00311114  RH  034%=      5-min Rain = 0
KBO1 011623Z 33007KT 03/M11 A3041 RMK A01 T00321111  RH  034%=      5-min Rain = 0
KBO1 011624Z 34008KT 03/M11 A3041 RMK A01 T00341110  RH  034%=      5-min Rain = 0
KBO1 011625Z 33005KT 04/M11 A3041 RMK A01 T00351111  RH  033%=      5-min Rain = 0
KBO1 011626Z 32005KT 03/M11 A3041 RMK A01 T00331113  RH  033%=      5-min Rain = 0
KBO1 011627Z 34007KT 03/M11 A3041 RMK A01 T00341109  RH  034%=      5-min Rain = 0
KBO1 011628Z 34009KT 04/M11 A3041 RMK A01 T00391108  RH  033%=      5-min Rain = 0
KBO1 011629Z 32006KT 04/M11 A3041 RMK A01 T00371113  RH  032%=      5-min Rain = 0
KBO1 011630Z 30005KT 03/M12 A3041 RMK A01 T00341115  RH  033%=      5-min Rain = 0
KBO1 011631Z 32005KT 03/M12 A3041 RMK A01 T00331115  RH  033%=      5-min Rain = 0
KBO1 011632Z 35006KT 03/M11 A3041 RMK A01 T00341112  RH  033%=      5-min Rain = 0
KBO1 011633Z 35007KT 04/M11 A3041 RMK A01 T00381108  RH  033%=      5-min Rain = 0
KBO1 011634Z 34007KT 04/M11 A3041 RMK A01 T00401110  RH  033%=      5-min Rain = 0
KBO1 011635Z 33005KT 04/M11 A3041 RMK A01 T00371114  RH  032%=      5-min Rain = 0
KBO1 011636Z 33006KT 04/M11 A3041 RMK A01 T00361113  RH  033%=      5-min Rain = 0
KBO1 011637Z 32006KT 04/M11 A3041 RMK A01 T00351113  RH  033%=      5-min Rain = 0
KBO1 011638Z 31005KT 04/M11 A3041 RMK A01 T00351113  RH  033%=      5-min Rain = 0
KBO1 011639Z 34007KT 03/M11 A3041 RMK A01 T00341113  RH  033%=      5-min Rain = 0
KBO1 011640Z 33007KT 04/M11 A3041 RMK A01 T00351112  RH  033%=      5-min Rain = 0
KBO1 011641Z 33004G9KT 04/M11 A3041 RMK A01 T00351114  RH  033%=      5-min Rain = 0
KBO1 011642Z 34007KT 04/M11 A3041 RMK A01 T00351113  RH  033%=      5-min Rain = 0
KBO1 011643Z 32004KT 03/M11 A3041 RMK A01 T00341114  RH  033%=      5-min Rain = 0
KBO1 011644Z 35005KT 03/M12 A3041 RMK A01 T00341115  RH  033%=      5-min Rain = 0
KBO1 011645Z 01005KT 04/M11 A3041 RMK A01 T00371111  RH  033%=      5-min Rain = 0
KBO1 011646Z 03003KT 04/M11 A3041 RMK A01 T00391112  RH  032%=      5-min Rain = 0
KBO1 011647Z 36005KT 04/M11 A3041 RMK A01 T00401112  RH  032%=      5-min Rain = 0
KBO1 011648Z 01008KT 04/M11 A3041 RMK A01 T00421111  RH  032%=      5-min Rain = 0
KBO1 011649Z 01004G9KT 04/M11 A3041 RMK A01 T00411113  RH  032%=      5-min Rain = 0
KBO1 011650Z 32003KT 04/M11 A3041 RMK A01 T00391113  RH  032%=      5-min Rain = 0
KBO1 011651Z 32004KT 04/M11 A3041 RMK A01 T00411110  RH  032%=      5-min Rain = 0
KBO1 011652Z 33003KT 04/M11 A3041 RMK A01 T00421112  RH  031%=      5-min Rain = 0
KBO1 011653Z 33005KT 04/M11 A3041 RMK A01 T00431112  RH  031%=      5-min Rain = 0
KBO1 011654Z 32006KT 04/M11 A3041 RMK A01 T00441113  RH  031%=      5-min Rain = 0
KBO1 011655Z 36008KT 04/M11 A3041 RMK A01 T00421113  RH  031%=      5-min Rain = 0
KBO1 011656Z 01007KT 05/M11 A3041 RMK A01 T00451110  RH  032%=      5-min Rain = 0
KBO1 011657Z 36006KT 05/M11 A3041 RMK A01 T00491109  RH  031%=      5-min Rain = 0
KBO1 011658Z 01005KT 05/M11 A3041 RMK A01 T00481111  RH  030%=      5-min Rain = 0
KBO1 011659Z 03004KT 05/M11 A3041 RMK A01 T00481111  RH  031%=      5-min Rain = 0
KBO1 011700Z 03004KT 05/M11 A3041 RMK A01 T00481111  RH  030%=      5-min Rain = 0
KBO1 011701Z 02002KT 05/M11 A3041 RMK A01 T00471113  RH  030%=      5-min Rain = 0
KBO1 011702Z 33005KT 05/M11 A3041 RMK A01 T00461113  RH  030%=      5-min Rain = 0
KBO1 011703Z 33007KT 05/M11 A3041 RMK A01 T00481111  RH  030%=      5-min Rain = 0
KBO1 011704Z 33008KT 05/M11 A3041 RMK A01 T00471114  RH  030%=      5-min Rain = 0
KBO1 011705Z 00009KT 05/M11 A3041 RMK A01 T00471112  RH  030%=      5-min Rain = 0
KBO1 011706Z 00008KT 05/M11 A3041 RMK A01 T00491113  RH  030%=      5-min Rain = 0
KBO1 011707Z 00007KT 05/M12 A3041 RMK A01 T00481115  RH  030%=      5-min Rain = 0
KBO1 011708Z 01007KT 05/M12 A3041 RMK A01 T00471115  RH  030%=      5-min Rain = 0
KBO1 011709Z 00006KT 05/M12 A3041 RMK A01 T00461118  RH  029%=      5-min Rain = 0
KBO1 011710Z 33006KT 04/M12 A3041 RMK A01 T00441119  RH  030%=      5-min Rain = 0
KBO1 011711Z 32005KT 04/M12 A3041 RMK A01 T00431117  RH  030%=      5-min Rain = 0
KBO1 011712Z 33004KT 04/M12 A3041 RMK A01 T00431118  RH  030%=      5-min Rain = 0
KBO1 011713Z 34005KT 04/M12 A3041 RMK A01 T00431117  RH  030%=      5-min Rain = 0
KBO1 011714Z 30005KT 05/M11 A3041 RMK A01 T00461113  RH  030%=      5-min Rain = 0
KBO1 011715Z 32004G9KT 05/M12 A3041 RMK A01 T00481115  RH  030%=      5-min Rain = 0
KBO1 011716Z 35008KT 05/M12 A3041 RMK A01 T00491115  RH  029%=      5-min Rain = 0
KBO1 011717Z 34006KT 05/M12 A3041 RMK A01 T00491117  RH  029%=      5-min Rain = 0
KBO1 011718Z 33007KT 05/M12 A3041 RMK A01 T00491118  RH  029%=      5-min Rain = 0
KBO1 011719Z 34004KT 05/M12 A3041 RMK A01 T00471120  RH  029%=      5-min Rain = 0
KBO1 011720Z 31004KT 05/M12 A3041 RMK A01 T00471118  RH  029%=      5-min Rain = 0
KBO1 011721Z 32004KT 05/M12 A3042 RMK A01 T00491117  RH  029%=      5-min Rain = 0
KBO1 011722Z 33006KT 05/M12 A3042 RMK A01 T00491117  RH  029%=      5-min Rain = 0
KBO1 011723Z 34005G10KT 05/M12 A3042 RMK A01 T00491119  RH  028%=      5-min Rain = 0
KBO1 011724Z 35004KT 05/M12 A3042 RMK A01 T00471120  RH  029%=      5-min Rain = 0
KBO1 011725Z 02004KT 05/M12 A3042 RMK A01 T00461118  RH  029%=      5-min Rain = 0
KBO1 011726Z 02004KT 05/M12 A3042 RMK A01 T00481116  RH  029%=      5-min Rain = 0
KBO1 011727Z 03002KT 05/M12 A3042 RMK A01 T00491118  RH  029%=      5-min Rain = 0
KBO1 011728Z 05002KT 05/M12 A3042 RMK A01 T00481118  RH  029%=      5-min Rain = 0
KBO1 011729Z 35005KT 05/M12 A3042 RMK A01 T00491117  RH  029%=      5-min Rain = 0
KBO1 011730Z 00007KT 05/M11 A3042 RMK A01 T00531113  RH  029%=      5-min Rain = 0
KBO1 011731Z 00007KT 05/M12 A3042 RMK A01 T00541117  RH  028%=      5-min Rain = 0
KBO1 011732Z 00008KT 05/M12 A3042 RMK A01 T00521118  RH  028%=      5-min Rain = 0
KBO1 011733Z 03006KT 05/M12 A3042 RMK A01 T00531116  RH  028%=      5-min Rain = 0
KBO1 011734Z 03005KT 06/M12 A3042 RMK A01 T00561115  RH  028%=      5-min Rain = 0
KBO1 011735Z 02003KT 06/M12 A3042 RMK A01 T00561116  RH  028%=      5-min Rain = 0
KBO1 011736Z 03001KT 06/M12 A3042 RMK A01 T00561116  RH  028%=      5-min Rain = 0
KBO1 011737Z 30003KT 06/M12 A3042 RMK A01 T00561115  RH  028%=      5-min Rain = 0
KBO1 011738Z 32003KT 06/M12 A3042 RMK A01 T00551118  RH  027%=      5-min Rain = 0
KBO1 011739Z 32003KT 05/M12 A3042 RMK A01 T00541118  RH  028%=      5-min Rain = 0
KBO1 011740Z 35002KT 05/M12 A3042 RMK A01 T00531119  RH  028%=      5-min Rain = 0
KBO1 011741Z 02005KT 05/M12 A3042 RMK A01 T00531119  RH  028%=      5-min Rain = 0
KBO1 011742Z 04003KT 05/M12 A3042 RMK A01 T00521119  RH  028%=      5-min Rain = 0
KBO1 011743Z 07005KT 05/M12 A3042 RMK A01 T00531118  RH  028%=      5-min Rain = 0
KBO1 011744Z 02005G12KT 06/M12 A3042 RMK A01 T00561116  RH  028%=      5-min Rain = 0
KBO1 011745Z 03006KT 06/M12 A3042 RMK A01 T00571117  RH  027%=      5-min Rain = 0
KBO1 011746Z 35007KT 06/M12 A3042 RMK A01 T00561117  RH  028%=      5-min Rain = 0
KBO1 011747Z 35008KT 06/M12 A3042 RMK A01 T00571116  RH  028%=      5-min Rain = 0
KBO1 011748Z 32005KT 06/M12 A3042 RMK A01 T00571119  RH  027%=      5-min Rain = 0
KBO1 011749Z 31001KT 05/M12 A3042 RMK A01 T00531121  RH  027%=      5-min Rain = 0
KBO1 011750Z 31004KT 05/M12 A3042 RMK A01 T00531120  RH  028%=      5-min Rain = 0
KBO1 011751Z 31006KT 06/M12 A3042 RMK A01 T00551117  RH  028%=      5-min Rain = 0
KBO1 011752Z 36006KT 06/M12 A3042 RMK A01 T00561117  RH  028%=      5-min Rain = 0
KBO1 011753Z 00009KT 06/M12 A3042 RMK A01 T00571117  RH  027%=      5-min Rain = 0
KBO1 011754Z 03007KT 06/M12 A3042 RMK A01 T00581117  RH  027%=      5-min Rain = 0
KBO1 011755Z 04007KT 06/M12 A3042 RMK A01 T00571118  RH  027%=      5-min Rain = 0
KBO1 011756Z 06006KT 06/M12 A3042 RMK A01 T00551120  RH  027%=      5-min Rain = 0
KBO1 011757Z 06006KT 05/M12 A3042 RMK A01 T00531118  RH  028%=      5-min Rain = 0
KBO1 011758Z 05003KT 06/M12 A3042 RMK A01 T00551116  RH  028%=      5-min Rain = 0
KBO1 011759Z 34009KT 06/M12 A3042 RMK A01 T00561116  RH  028%=      5-min Rain = 0
KBO1 011800Z 33009KT 06/M12 A3042 RMK A01 T00581116  RH  027%=      5-min Rain = 0
KBO1 011801Z 34009KT 06/M12 A3042 RMK A01 T00591117  RH  027%=      5-min Rain = 0
KBO1 011802Z 33008KT 06/M12 A3042 RMK A01 T00571120  RH  027%=      5-min Rain = 0
KBO1 011803Z 33006KT 05/M12 A3042 RMK A01 T00541121  RH  027%=      5-min Rain = 0
KBO1 011804Z 32005KT 05/M12 A3042 RMK A01 T00531119  RH  028%=      5-min Rain = 0
KBO1 011805Z 30003KT 06/M12 A3042 RMK A01 T00561118  RH  027%=      5-min Rain = 0
KBO1 011806Z 20002KT 06/M12 A3042 RMK A01 T00581119  RH  027%=      5-min Rain = 0
KBO1 011807Z 18001KT 06/M12 A3042 RMK A01 T00581120  RH  027%=      5-min Rain = 0
KBO1 011808Z 28001KT 06/M12 A3042 RMK A01 T00581120  RH  027%=      5-min Rain = 0
KBO1 011809Z 34007KT 06/M12 A3042 RMK A01 T00601117  RH  027%=      5-min Rain = 0
KBO1 011810Z 34009KT 06/M11 A3042 RMK A01 T00631114  RH  027%=      5-min Rain = 0
KBO1 011811Z 34008KT 06/M12 A3042 RMK A01 T00631118  RH  026%=      5-min Rain = 0
KBO1 011812Z 34009KT 06/M12 A3042 RMK A01 T00631117  RH  026%=      5-min Rain = 0
KBO1 011813Z 34007KT 06/M12 A3042 RMK A01 T00621118  RH  026%=      5-min Rain = 0
KBO1 011814Z 00002KT 06/M12 A3042 RMK A01 T00601119  RH  026%=      5-min Rain = 0
KBO1 011815Z 31003KT 06/M12 A3042 RMK A01 T00601118  RH  027%=      5-min Rain = 0
KBO1 011816Z 32006KT 06/M11 A3042 RMK A01 T00641114  RH  027%=      5-min Rain = 0
KBO1 011817Z 33003KT 07/M12 A3042 RMK A01 T00661117  RH  026%=      5-min Rain = 0
KBO1 011818Z 01004KT 07/M12 A3042 RMK A01 T00651119  RH  026%=      5-min Rain = 0
KBO1 011819Z 03005KT 06/M12 A3042 RMK A01 T00631120  RH  026%=      5-min Rain = 0
KBO1 011820Z 03004KT 06/M12 A3042 RMK A01 T00621120  RH  026%=      5-min Rain = 0
KBO1 011821Z 32005KT 06/M12 A3042 RMK A01 T00601119  RH  026%=      5-min Rain = 0
KBO1 011822Z 32007KT 06/M12 A3042 RMK A01 T00611118  RH  026%=      5-min Rain = 0
KBO1 011823Z 30004KT 06/M12 A3042 RMK A01 T00621118  RH  026%=      5-min Rain = 0
KBO1 011824Z 31003KT 06/M12 A3042 RMK A01 T00621117  RH  026%=      5-min Rain = 0
KBO1 011825Z 31003KT 06/M12 A3042 RMK A01 T00621117  RH  026%=      5-min Rain = 0
KBO1 011826Z 35005KT 06/M12 A3042 RMK A01 T00621118  RH  026%=      5-min Rain = 0
KBO1 011827Z 02007KT 07/M11 A3042 RMK A01 T00661113  RH  026%=      5-min Rain = 0
KBO1 011828Z 02007KT 07/M11 A3042 RMK A01 T00731113  RH  025%=      5-min Rain = 0
KBO1 011829Z 02004KT 07/M12 A3042 RMK A01 T00711121  RH  024%=      5-min Rain = 0
KBO1 011830Z 02004KT 07/M12 A3042 RMK A01 T00691120  RH  025%=      5-min Rain = 0
KBO1 011831Z 03004KT 07/M12 A3042 RMK A01 T00701119  RH  025%=      5-min Rain = 0
KBO1 011832Z 35008KT 07/M12 A3042 RMK A01 T00701120  RH  024%=      5-min Rain = 0
KBO1 011833Z 32007KT 07/M12 A3042 RMK A01 T00671123  RH  024%=      5-min Rain = 0
KBO1 011834Z 33004KT 07/M12 A3042 RMK A01 T00651123  RH  025%=      5-min Rain = 0
KBO1 011835Z 32001KT 06/M12 A3041 RMK A01 T00621124  RH  025%=      5-min Rain = 0
KBO1 011836Z 34002KT 06/M12 A3041 RMK A01 T00621122  RH  025%=      5-min Rain = 0
KBO1 011837Z 30004KT 06/M12 A3041 RMK A01 T00641121  RH  025%=      5-min Rain = 0
KBO1 011838Z 33005KT 06/M12 A3041 RMK A01 T00641121  RH  025%=      5-min Rain = 0
KBO1 011839Z 34005KT 06/M12 A3041 RMK A01 T00641121  RH  025%=      5-min Rain = 0
KBO1 011840Z 36007G13KT 07/M12 A3041 RMK A01 T00681117  RH  025%=      5-min Rain = 0
KBO1 011841Z 01009KT 07/M12 A3041 RMK A01 T00741116  RH  025%=      5-min Rain = 0
KBO1 011842Z 01008KT 08/M12 A3041 RMK A01 T00751118  RH  024%=      5-min Rain = 0
KBO1 011843Z 35011KT 08/M12 A3041 RMK A01 T00751120  RH  024%=      5-min Rain = 0
KBO1 011844Z 36009KT 07/M12 A3041 RMK A01 T00721120  RH  024%=      5-min Rain = 0
KBO1 011845Z 33009KT 07/M12 A3041 RMK A01 T00721119  RH  024%=      5-min Rain = 0
KBO1 011846Z 32007KT 07/M12 A3041 RMK A01 T00731118  RH  024%=      5-min Rain = 0
KBO1 011847Z 34006KT 08/M12 A3041 RMK A01 T00761116  RH  024%=      5-min Rain = 0
KBO1 011848Z 01007KT 08/M12 A3041 RMK A01 T00771117  RH  024%=      5-min Rain = 0
KBO1 011849Z 02007KT 08/M12 A3041 RMK A01 T00761119  RH  024%=      5-min Rain = 0
KBO1 011850Z 00005KT 07/M13 A3041 RMK A01 T00701125  RH  023%=      5-min Rain = 0
KBO1 011851Z 01006KT 07/M12 A3041 RMK A01 T00671124  RH  024%=      5-min Rain = 0
KBO1 011852Z 02007KT 07/M12 A3041 RMK A01 T00711119  RH  025%=      5-min Rain = 0
KBO1 011853Z 01006KT 08/M12 A3041 RMK A01 T00751118  RH  024%=      5-min Rain = 0
KBO1 011854Z 02006KT 08/M12 A3041 RMK A01 T00751119  RH  024%=      5-min Rain = 0
KBO1 011855Z 31004KT 07/M12 A3041 RMK A01 T00741122  RH  023%=      5-min Rain = 0
KBO1 011856Z 31005KT 07/M12 A3041 RMK A01 T00721121  RH  024%=      5-min Rain = 0
KBO1 011857Z 29005KT 07/M12 A3041 RMK A01 T00711122  RH  024%=      5-min Rain = 0
KBO1 011858Z 33006KT 07/M12 A3041 RMK A01 T00721119  RH  024%=      5-min Rain = 0
KBO1 011859Z 34007KT 08/M12 A3041 RMK A01 T00751117  RH  024%=      5-min Rain = 0
KBO1 011900Z 34008KT 08/M12 A3041 RMK A01 T00791118  RH  023%=      5-min Rain = 0
KBO1 011901Z 36011KT 08/M12 A3041 RMK A01 T00761123  RH  023%=      5-min Rain = 0
KBO1 011902Z 36009KT 08/M12 A3041 RMK A01 T00761123  RH  023%=      5-min Rain = 0
KBO1 011903Z 36010KT 07/M12 A3041 RMK A01 T00731123  RH  023%=      5-min Rain = 0
KBO1 011904Z 35007KT 07/M12 A3041 RMK A01 T00731123  RH  023%=      5-min Rain = 0
KBO1 011905Z 00004KT 07/M12 A3041 RMK A01 T00721124  RH  023%=      5-min Rain = 0
KBO1 011906Z 34004KT 07/M12 A304 RMK A01 T00711124  RH  023%=      5-min Rain = 0
KBO1 011907Z 33005KT 07/M12 A304 RMK A01 T00701124  RH  024%=      5-min Rain = 0
KBO1 011908Z 35004KT 07/M13 A304 RMK A01 T00691125  RH  024%=      5-min Rain = 0
KBO1 011909Z 33002KT 07/M13 A304 RMK A01 T00681125  RH  024%=      5-min Rain = 0
KBO1 011910Z 31003KT 07/M13 A304 RMK A01 T00691125  RH  024%=      5-min Rain = 0
KBO1 011911Z 35006KT 07/M13 A304 RMK A01 T00691125  RH  024%=      5-min Rain = 0
KBO1 011912Z 33008KT 07/M12 A304 RMK A01 T00741120  RH  024%=      5-min Rain = 0
KBO1 011913Z 32009KT 08/M12 A304 RMK A01 T00761122  RH  023%=      5-min Rain = 0
KBO1 011914Z 31008KT 08/M12 A304 RMK A01 T00761123  RH  023%=      5-min Rain = 0
KBO1 011915Z 32008KT 08/M12 A304 RMK A01 T00751124  RH  023%=      5-min Rain = 0
KBO1 011916Z 33008KT 07/M13 A304 RMK A01 T00721126  RH  023%=      5-min Rain = 0
KBO1 011917Z 31010KT 07/M13 A304 RMK A01 T00711125  RH  023%=      5-min Rain = 0
KBO1 011918Z 29010KT 08/M12 A304 RMK A01 T00751122  RH  023%=      5-min Rain = 0
KBO1 011919Z 29008KT 08/M12 A304 RMK A01 T00751124  RH  023%=      5-min Rain = 0
KBO1 011920Z 30006KT 07/M12 A304 RMK A01 T00731124  RH  023%=      5-min Rain = 0
KBO1 011921Z 29007KT 08/M12 A304 RMK A01 T00751122  RH  023%=      5-min Rain = 0
KBO1 011922Z 34010G15KT 08/M12 A304 RMK A01 T00771122  RH  023%=      5-min Rain = 0
KBO1 011923Z 33010KT 08/M12 A304 RMK A01 T00821118  RH  023%=      5-min Rain = 0
KBO1 011924Z 31007KT 08/M12 A304 RMK A01 T00841122  RH  022%=      5-min Rain = 0
KBO1 011925Z 31007KT 08/M12 A304 RMK A01 T00811124  RH  022%=      5-min Rain = 0
KBO1 011926Z 32005G10KT 08/M13 A304 RMK A01 T00781126  RH  022%=      5-min Rain = 0
KBO1 011927Z 32008KT 08/M13 A304 RMK A01 T00761126  RH  022%=      5-min Rain = 0
KBO1 011928Z 33007KT 07/M13 A304 RMK A01 T00741127  RH  022%=      5-min Rain = 0
KBO1 011929Z 33005KT 07/M13 A304 RMK A01 T00741125  RH  023%=      5-min Rain = 0
KBO1 011930Z 36005KT 08/M13 A304 RMK A01 T00751126  RH  022%=      5-min Rain = 0
KBO1 011931Z 36005KT 07/M13 A3039 RMK A01 T00731128  RH  022%=      5-min Rain = 0
KBO1 011932Z 01009KT 07/M13 A3039 RMK A01 T00731126  RH  023%=      5-min Rain = 0
KBO1 011933Z 35010KT 08/M12 A3039 RMK A01 T00751123  RH  023%=      5-min Rain = 0
KBO1 011934Z 30011KT 08/M12 A3039 RMK A01 T00801120  RH  023%=      5-min Rain = 0
KBO1 011935Z 32009KT 08/M12 A3039 RMK A01 T00831121  RH  022%=      5-min Rain = 0
KBO1 011936Z 32007KT 08/M13 A3039 RMK A01 T00801126  RH  022%=      5-min Rain = 0
KBO1 011937Z 33006KT 08/M13 A3039 RMK A01 T00781126  RH  022%=      5-min Rain = 0
KBO1 011938Z 36007KT 08/M13 A3039 RMK A01 T00771125  RH  022%=      5-min Rain = 0
KBO1 011939Z 00006KT 08/M13 A3039 RMK A01 T00781126  RH  022%=      5-min Rain = 0
KBO1 011940Z 35007KT 08/M13 A3039 RMK A01 T00761127  RH  022%=      5-min Rain = 0
KBO1 011941Z 35007KT 08/M13 A3039 RMK A01 T00751126  RH  023%=      5-min Rain = 0
KBO1 011942Z 35010KT 08/M13 A3039 RMK A01 T00761125  RH  023%=      5-min Rain = 0
KBO1 011943Z 35010KT 08/M13 A3039 RMK A01 T00761126  RH  022%=      5-min Rain = 0
KBO1 011944Z 35009KT 07/M13 A3039 RMK A01 T00741127  RH  022%=      5-min Rain = 0
KBO1 011945Z 02005KT 07/M13 A3039 RMK A01 T00711131  RH  022%=      5-min Rain = 0
KBO1 011946Z 36005KT 07/M13 A3039 RMK A01 T00701129  RH  023%=      5-min Rain = 0
KBO1 011947Z 34005KT 07/M13 A3039 RMK A01 T00711128  RH  023%=      5-min Rain = 0
KBO1 011948Z 33005KT 07/M13 A3039 RMK A01 T00701129  RH  023%=      5-min Rain = 0
KBO1 011949Z 32003KT 07/M13 A3039 RMK A01 T00711128  RH  023%=      5-min Rain = 0
KBO1 011950Z 08001KT 07/M13 A3039 RMK A01 T00721127  RH  023%=      5-min Rain = 0
KBO1 011951Z 12001KT 07/M13 A3039 RMK A01 T00741126  RH  023%=      5-min Rain = 0
KBO1 011952Z 34003KT 08/M12 A3039 RMK A01 T00771124  RH  023%=      5-min Rain = 0
KBO1 011953Z 23001KT 08/M13 A3039 RMK A01 T00771127  RH  022%=      5-min Rain = 0
KBO1 011954Z 21002KT 08/M13 A3038 RMK A01 T00761128  RH  022%=      5-min Rain = 0
KBO1 011955Z 18002KT 08/M13 A3038 RMK A01 T00771127  RH  022%=      5-min Rain = 0
KBO1 011956Z 22004KT 08/M13 A3038 RMK A01 T00771126  RH  022%=      5-min Rain = 0
KBO1 011957Z 25003KT 08/M13 A3038 RMK A01 T00781126  RH  022%=      5-min Rain = 0
KBO1 011958Z 30004KT 08/M13 A3038 RMK A01 T00781127  RH  022%=      5-min Rain = 0
KBO1 011959Z 31006KT 08/M13 A3038 RMK A01 T00791126  RH  022%=      5-min Rain = 0
KBO1 012000Z 26002KT 08/M13 A3038 RMK A01 T00781128  RH  022%=      5-min Rain = 0
KBO1 012001Z 31003KT 08/M13 A3038 RMK A01 T00781127  RH  022%=      5-min Rain = 0
KBO1 012002Z 00004KT 08/M13 A3038 RMK A01 T00801127  RH  022%=      5-min Rain = 0
KBO1 012003Z 33008KT 08/M13 A3038 RMK A01 T00811125  RH  022%=      5-min Rain = 0
KBO1 012004Z 30006KT 08/M13 A3038 RMK A01 T00811126  RH  022%=      5-min Rain = 0
KBO1 012005Z 03004KT 08/M13 A3038 RMK A01 T00781128  RH  022%=      5-min Rain = 0
KBO1 012006Z 02006KT 08/M13 A3038 RMK A01 T00791126  RH  022%=      5-min Rain = 0
KBO1 012007Z 01005KT 08/M13 A3038 RMK A01 T00801125  RH  022%=      5-min Rain = 0
KBO1 012008Z 35003KT 08/M13 A3038 RMK A01 T00811126  RH  022%=      5-min Rain = 0
KBO1 012009Z 34007KT 08/M13 A3038 RMK A01 T00811126  RH  022%=      5-min Rain = 0
KBO1 012010Z 34008KT 08/M13 A3038 RMK A01 T00821127  RH  021%=      5-min Rain = 0
KBO1 012011Z 33009KT 08/M13 A3038 RMK A01 T00811128  RH  021%=      5-min Rain = 0
KBO1 012012Z 33009KT 08/M13 A3038 RMK A01 T00841126  RH  021%=      5-min Rain = 0
KBO1 012013Z 34008KT 09/M13 A3038 RMK A01 T00851128  RH  021%=      5-min Rain = 0
KBO1 012014Z 31008KT 08/M13 A3038 RMK A01 T00841128  RH  021%=      5-min Rain = 0
KBO1 012015Z 34008KT 08/M13 A3038 RMK A01 T00831129  RH  021%=      5-min Rain = 0
KBO1 012016Z 00005KT 08/M13 A3038 RMK A01 T00831130  RH  021%=      5-min Rain = 0
KBO1 012017Z 36008KT 08/M13 A3037 RMK A01 T00811131  RH  021%=      5-min Rain = 0
KBO1 012018Z 34006KT 08/M13 A3038 RMK A01 T00811133  RH  020%=      5-min Rain = 0
KBO1 012019Z 33002KT 08/M14 A3037 RMK A01 T00791135  RH  020%=      5-min Rain = 0
KBO1 012020Z 31002KT 08/M14 A3037 RMK A01 T00761137  RH  020%=      5-min Rain = 0
KBO1 012021Z 34001KT 08/M14 A3037 RMK A01 T00751136  RH  021%=      5-min Rain = 0
KBO1 012022Z 35001KT 08/M13 A3037 RMK A01 T00791131  RH  021%=      5-min Rain = 0
KBO1 012023Z 02002KT 08/M13 A3037 RMK A01 T00811133  RH  020%=      5-min Rain = 0
KBO1 012024Z 04008KT 08/M13 A3037 RMK A01 T00801133  RH  020%=      5-min Rain = 0
KBO1 012025Z 36006KT 08/M13 A3037 RMK A01 T00821130  RH  021%=      5-min Rain = 0
KBO1 012026Z 33004KT 08/M13 A3037 RMK A01 T00831130  RH  021%=      5-min Rain = 0
KBO1 012027Z 32004KT 08/M13 A3037 RMK A01 T00821129  RH  021%=      5-min Rain = 0
KBO1 012028Z 31005KT 08/M13 A3037 RMK A01 T00821128  RH  021%=      5-min Rain = 0
KBO1 012029Z 28003KT 08/M13 A3037 RMK A01 T00811130  RH  021%=      5-min Rain = 0
KBO1 012030Z 29002KT 08/M13 A3037 RMK A01 T00791131  RH  021%=      5-min Rain = 0
KBO1 012031Z 30005G11KT 08/M13 A3037 RMK A01 T00801128  RH  021%=      5-min Rain = 0
KBO1 012032Z 34005KT 09/M12 A3037 RMK A01 T00861123  RH  021%=      5-min Rain = 0
KBO1 012033Z 33004KT 09/M13 A3037 RMK A01 T00891127  RH  020%=      5-min Rain = 0
KBO1 012034Z 05004KT 09/M13 A3037 RMK A01 T00871129  RH  020%=      5-min Rain = 0
KBO1 012035Z 05003KT 09/M13 A3037 RMK A01 T00861131  RH  020%=      5-min Rain = 0
KBO1 012036Z 04004KT 09/M13 A3037 RMK A01 T00851133  RH  020%=      5-min Rain = 0
KBO1 012037Z 35006G11KT 08/M14 A3037 RMK A01 T00831135  RH  020%=      5-min Rain = 0
KBO1 012038Z 33011KT 08/M13 A3036 RMK A01 T00821132  RH  020%=      5-min Rain = 0
KBO1 012039Z 33010KT 08/M13 A3036 RMK A01 T00821132  RH  021%=      5-min Rain = 0
KBO1 012040Z 34010KT 08/M13 A3036 RMK A01 T00801133  RH  020%=      5-min Rain = 0
KBO1 012041Z 34008KT 08/M13 A3036 RMK A01 T00811131  RH  021%=      5-min Rain = 0
KBO1 012042Z 34007KT 08/M13 A3036 RMK A01 T00821131  RH  021%=      5-min Rain = 0
KBO1 012043Z 34007KT 08/M13 A3036 RMK A01 T00831131  RH  021%=      5-min Rain = 0
KBO1 012044Z 34007KT 08/M13 A3036 RMK A01 T00831132  RH  020%=      5-min Rain = 0
KBO1 012045Z 35008KT 08/M13 A3036 RMK A01 T00831134  RH  020%=      5-min Rain = 0
KBO1 012046Z 00005KT 08/M14 A3036 RMK A01 T00821136  RH  020%=      5-min Rain = 0
KBO1 012047Z 02003KT 08/M14 A3036 RMK A01 T00801136  RH  020%=      5-min Rain = 0
KBO1 012048Z 09003KT 08/M14 A3036 RMK A01 T00771137  RH  020%=      5-min Rain = 0
KBO1 012049Z 12002KT 08/M14 A3036 RMK A01 T00771136  RH  021%=      5-min Rain = 0
KBO1 012050Z 33006KT 08/M13 A3036 RMK A01 T00821130  RH  021%=      5-min Rain = 0
KBO1 012051Z 33008KT 09/M13 A3036 RMK A01 T00851134  RH  020%=      5-min Rain = 0
KBO1 012052Z 33005KT 08/M14 A3036 RMK A01 T00811138  RH  020%=      5-min Rain = 0
KBO1 012053Z 32004KT 08/M14 A3036 RMK A01 T00801139  RH  020%=      5-min Rain = 0
KBO1 012054Z 27001KT 08/M14 A3036 RMK A01 T00791139  RH  020%=      5-min Rain = 0
KBO1 012055Z 35001KT 08/M14 A3036 RMK A01 T00811137  RH  020%=      5-min Rain = 0
KBO1 012056Z 35004KT 08/M14 A3036 RMK A01 T00841135  RH  020%=      5-min Rain = 0
KBO1 012057Z 01006KT 09/M13 A3036 RMK A01 T00861132  RH  020%=      5-min Rain = 0
KBO1 012058Z 36006KT 08/M14 A3036 RMK A01 T00841135  RH  020%=      5-min Rain = 0
KBO1 012059Z 33006KT 09/M13 A3036 RMK A01 T00851133  RH  020%=      5-min Rain = 0
KBO1 012100Z 32005KT 08/M13 A3036 RMK A01 T00841134  RH  020%=      5-min Rain = 0
KBO1 012101Z 00004KT 08/M13 A3036 RMK A01 T00831134  RH  020%=      5-min Rain = 0
KBO1 012102Z 05002KT 08/M14 A3036 RMK A01 T00821136  RH  020%=      5-min Rain = 0
KBO1 012103Z 10004KT 08/M14 A3036 RMK A01 T00791138  RH  020%=      5-min Rain = 0
KBO1 012104Z 05002KT 08/M14 A3036 RMK A01 T00771138  RH  020%=      5-min Rain = 0
KBO1 012105Z 33001KT 08/M14 A3036 RMK A01 T00791136  RH  020%=      5-min Rain = 0
KBO1 012106Z 34004KT 08/M14 A3036 RMK A01 T00811136  RH  020%=      5-min Rain = 0
KBO1 012107Z 31004KT 08/M14 A3036 RMK A01 T00821135  RH  020%=      5-min Rain = 0
KBO1 012108Z 32006KT 08/M13 A3036 RMK A01 T00831134  RH  020%=      5-min Rain = 0
KBO1 012109Z 31006KT 08/M14 A3036 RMK A01 T00831137  RH  020%=      5-min Rain = 0
KBO1 012110Z 34005KT 08/M14 A3036 RMK A01 T00801138  RH  020%=      5-min Rain = 0
KBO1 012111Z 35002KT 08/M14 A3036 RMK A01 T00801136  RH  020%=      5-min Rain = 0
KBO1 012112Z 14000KT 08/M14 A3036 RMK A01 T00801136  RH  020%=      5-min Rain = 0
KBO1 012113Z 13001KT 08/M14 A3036 RMK A01 T00801137  RH  020%=      5-min Rain = 0
KBO1 012114Z 27001KT 08/M14 A3036 RMK A01 T00811136  RH  020%=      5-min Rain = 0
KBO1 012115Z 31007KT 08/M13 A3036 RMK A01 T00831134  RH  020%=      5-min Rain = 0
KBO1 012116Z 32008KT 09/M13 A3036 RMK A01 T00851133  RH  020%=      5-min Rain = 0
KBO1 012117Z 33007KT 08/M14 A3036 RMK A01 T00841135  RH  020%=      5-min Rain = 0
KBO1 012118Z 32006KT 08/M14 A3036 RMK A01 T00821136  RH  020%=      5-min Rain = 0
KBO1 012119Z 32005KT 08/M14 A3036 RMK A01 T00811136  RH  020%=      5-min Rain = 0
KBO1 012120Z 32002KT 08/M14 A3036 RMK A01 T00801137  RH  020%=      5-min Rain = 0
KBO1 012121Z 33001KT 08/M14 A3036 RMK A01 T00801136  RH  020%=      5-min Rain = 0
KBO1 012122Z 33000KT 08/M14 A3036 RMK A01 T00821136  RH  020%=      5-min Rain = 0
KBO1 012123Z 05002KT 08/M14 A3036 RMK A01 T00831135  RH  020%=      5-min Rain = 0
KBO1 012124Z 03005KT 08/M13 A3036 RMK A01 T00841134  RH  020%=      5-min Rain = 0
KBO1 012125Z 04002KT 08/M14 A3036 RMK A01 T00821136  RH  020%=      5-min Rain = 0
KBO1 012126Z 08001KT 08/M14 A3036 RMK A01 T00811136  RH  020%=      5-min Rain = 0
KBO1 012127Z 29002KT 08/M14 A3036 RMK A01 T00811135  RH  020%=      5-min Rain = 0
KBO1 012128Z 33005KT 08/M13 A3036 RMK A01 T00841131  RH  020%=      5-min Rain = 0
KBO1 012129Z 32006KT 09/M13 A3036 RMK A01 T00851132  RH  020%=      5-min Rain = 0
KBO1 012130Z 31004KT 08/M14 A3036 RMK A01 T00841136  RH  020%=      5-min Rain = 0
KBO1 012131Z 30005KT 08/M14 A3035 RMK A01 T00831135  RH  020%=      5-min Rain = 0
KBO1 012132Z 30004KT 08/M13 A3035 RMK A01 T00841133  RH  020%=      5-min Rain = 0
KBO1 012133Z 31006KT 09/M13 A3035 RMK A01 T00851133  RH  020%=      5-min Rain = 0
KBO1 012134Z 29005KT 09/M13 A3036 RMK A01 T00871130  RH  020%=      5-min Rain = 0
KBO1 012135Z 29004KT 09/M13 A3035 RMK A01 T00891131  RH  020%=      5-min Rain = 0
KBO1 012136Z 29006KT 09/M13 A3035 RMK A01 T00891133  RH  019%=      5-min Rain = 0
KBO1 012137Z 27005KT 09/M13 A3035 RMK A01 T00881134  RH  019%=      5-min Rain = 0
KBO1 012138Z 30003KT 09/M14 A3035 RMK A01 T00861138  RH  019%=      5-min Rain = 0
KBO1 012139Z 29004KT 09/M14 A3035 RMK A01 T00851136  RH  019%=      5-min Rain = 0
KBO1 012140Z 27006KT 09/M13 A3035 RMK A01 T00871134  RH  019%=      5-min Rain = 0
KBO1 012141Z 27003KT 09/M13 A3035 RMK A01 T00861134  RH  019%=      5-min Rain = 0
KBO1 012142Z 28002KT 09/M13 A3035 RMK A01 T00861134  RH  020%=      5-min Rain = 0
KBO1 012143Z 26002KT 09/M14 A3035 RMK A01 T00861135  RH  019%=      5-min Rain = 0
KBO1 012144Z 26000KT 09/M14 A3035 RMK A01 T00861136  RH  019%=      5-min Rain = 0
KBO1 012145Z 03001KT 09/M14 A3035 RMK A01 T00861135  RH  019%=      5-min Rain = 0
KBO1 012146Z 32003KT 09/M14 A3035 RMK A01 T00861135  RH  019%=      5-min Rain = 0
KBO1 012147Z 30008KT 09/M13 A3035 RMK A01 T00861134  RH  020%=      5-min Rain = 0
KBO1 012148Z 30006KT 09/M13 A3035 RMK A01 T00871134  RH  020%=      5-min Rain = 0
KBO1 012149Z 32003KT 09/M14 A3035 RMK A01 T00851135  RH  020%=      5-min Rain = 0
KBO1 012150Z 35003KT 08/M14 A3035 RMK A01 T00831135  RH  020%=      5-min Rain = 0
KBO1 012151Z 35004KT 08/M14 A3035 RMK A01 T00831135  RH  020%=      5-min Rain = 0
KBO1 012152Z 03005KT 08/M13 A3035 RMK A01 T00831134  RH  020%=      5-min Rain = 0
KBO1 012153Z 01001KT 08/M14 A3035 RMK A01 T00831135  RH  020%=      5-min Rain = 0
KBO1 012154Z 26001KT 08/M13 A3035 RMK A01 T00841134  RH  020%=      5-min Rain = 0
KBO1 012155Z 28004KT 09/M13 A3035 RMK A01 T00881132  RH  020%=      5-min Rain = 0
KBO1 012156Z 26007KT 09/M14 A3035 RMK A01 T00901138  RH  018%=      5-min Rain = 0
KBO1 012157Z 28007KT 09/M14 A3035 RMK A01 T00911144  RH  017%=      5-min Rain = 0
KBO1 012158Z 26008KT 09/M15 A3035 RMK A01 T00901145  RH  017%=      5-min Rain = 0
KBO1 012159Z 26009KT 09/M15 A3035 RMK A01 T00901146  RH  017%=      5-min Rain = 0
KBO1 012200Z 27009KT 09/M15 A3035 RMK A01 T00901146  RH  017%=      5-min Rain = 0
KBO1 012201Z 28007KT 09/M15 A3035 RMK A01 T00891148  RH  017%=      5-min Rain = 0
KBO1 012202Z 28006KT 09/M15 A3035 RMK A01 T00881150  RH  017%=      5-min Rain = 0
KBO1 012203Z 30005KT 09/M15 A3035 RMK A01 T00871150  RH  017%=      5-min Rain = 0
KBO1 012204Z 26008KT 09/M15 A3035 RMK A01 T00861146  RH  018%=      5-min Rain = 0
KBO1 012205Z 28010KT 09/M14 A3035 RMK A01 T00881143  RH  018%=      5-min Rain = 0
KBO1 012206Z 28011KT 09/M14 A3035 RMK A01 T00881142  RH  018%=      5-min Rain = 0
KBO1 012207Z 28009KT 09/M14 A3035 RMK A01 T00881142  RH  018%=      5-min Rain = 0
KBO1 012208Z 27008KT 09/M14 A3035 RMK A01 T00871142  RH  018%=      5-min Rain = 0
KBO1 012209Z 27007KT 09/M14 A3035 RMK A01 T00881142  RH  018%=      5-min Rain = 0
KBO1 012210Z 28005KT 09/M14 A3035 RMK A01 T00881142  RH  018%=      5-min Rain = 0
KBO1 012211Z 30005KT 09/M14 A3035 RMK A01 T00881144  RH  018%=      5-min Rain = 0
KBO1 012212Z 32003KT 09/M14 A3035 RMK A01 T00871142  RH  018%=      5-min Rain = 0
KBO1 012213Z 33003KT 09/M14 A3035 RMK A01 T00861142  RH  018%=      5-min Rain = 0
KBO1 012214Z 32005KT 09/M14 A3035 RMK A01 T00871141  RH  018%=      5-min Rain = 0
KBO1 012215Z 31006KT 09/M14 A3035 RMK A01 T00871142  RH  018%=      5-min Rain = 0
KBO1 012216Z 31005KT 09/M14 A3035 RMK A01 T00871141  RH  018%=      5-min Rain = 0
KBO1 012217Z 30004KT 09/M14 A3035 RMK A01 T00881142  RH  018%=      5-min Rain = 0
KBO1 012218Z 28005KT 09/M14 A3035 RMK A01 T00881141  RH  018%=      5-min Rain = 0
KBO1 012219Z 30003KT 09/M14 A3035 RMK A01 T00881141  RH  018%=      5-min Rain = 0
KBO1 012220Z 31003KT 09/M14 A3035 RMK A01 T00881142  RH  018%=      5-min Rain = 0
KBO1 012221Z 30003KT 09/M14 A3035 RMK A01 T00871142  RH  018%=      5-min Rain = 0
KBO1 012222Z 33001KT 09/M14 A3035 RMK A01 T00861143  RH  018%=      5-min Rain = 0
KBO1 012223Z 32001KT 09/M14 A3035 RMK A01 T00861143  RH  018%=      5-min Rain = 0
KBO1 012224Z 31003KT 09/M14 A3035 RMK A01 T00881142  RH  018%=      5-min Rain = 0
KBO1 012225Z 29002KT 09/M14 A3035 RMK A01 T00881143  RH  018%=      5-min Rain = 0
KBO1 012226Z 24001KT 09/M14 A3035 RMK A01 T00891143  RH  018%=      5-min Rain = 0
KBO1 012227Z 33002KT 09/M14 A3035 RMK A01 T00881144  RH  018%=      5-min Rain = 0
KBO1 012228Z 31003KT 09/M14 A3035 RMK A01 T00881144  RH  018%=      5-min Rain = 0
KBO1 012229Z 28002KT 09/M15 A3035 RMK A01 T00871145  RH  018%=      5-min Rain = 0
KBO1 012230Z 01000KT 09/M14 A3035 RMK A01 T00871144  RH  018%=      5-min Rain = 0
KBO1 012231Z 36003KT 09/M14 A3035 RMK A01 T00891143  RH  018%=      5-min Rain = 0
KBO1 012232Z 36005KT 09/M15 A3035 RMK A01 T00901146  RH  017%=      5-min Rain = 0
KBO1 012233Z 36006KT 09/M15 A3035 RMK A01 T00911147  RH  017%=      5-min Rain = 0
KBO1 012234Z 35004KT 09/M14 A3035 RMK A01 T00911144  RH  017%=      5-min Rain = 0
KBO1 012235Z 27007KT 09/M14 A3034 RMK A01 T00921143  RH  018%=      5-min Rain = 0
KBO1 012236Z 28007KT 09/M14 A3035 RMK A01 T00931141  RH  018%=      5-min Rain = 0
KBO1 012237Z 28008KT 09/M14 A3035 RMK A01 T00911143  RH  018%=      5-min Rain = 0
KBO1 012238Z 30006KT 09/M14 A3035 RMK A01 T00901144  RH  018%=      5-min Rain = 0
KBO1 012239Z 30007KT 09/M15 A3035 RMK A01 T00881147  RH  017%=      5-min Rain = 0
KBO1 012240Z 29008KT 09/M15 A3035 RMK A01 T00881145  RH  018%=      5-min Rain = 0
KBO1 012241Z 31006KT 09/M15 A3035 RMK A01 T00891145  RH  018%=      5-min Rain = 0
KBO1 012242Z 33005KT 09/M15 A3035 RMK A01 T00891145  RH  018%=      5-min Rain = 0
KBO1 012243Z 32005KT 09/M15 A3035 RMK A01 T00871146  RH  018%=      5-min Rain = 0
KBO1 012244Z 29004KT 09/M15 A3035 RMK A01 T00871146  RH  018%=      5-min Rain = 0
KBO1 012245Z 31002KT 09/M15 A3035 RMK A01 T00881145  RH  018%=      5-min Rain = 0
KBO1 012246Z 30006KT 09/M14 A3035 RMK A01 T00891144  RH  018%=      5-min Rain = 0
KBO1 012247Z 30009KT 09/M14 A3035 RMK A01 T00891143  RH  018%=      5-min Rain = 0
KBO1 012248Z 30006KT 09/M14 A3035 RMK A01 T00891144  RH  018%=      5-min Rain = 0
KBO1 012249Z 29005KT 09/M14 A3035 RMK A01 T00871144  RH  018%=      5-min Rain = 0
KBO1 012250Z 30003KT 09/M14 A3035 RMK A01 T00871144  RH  018%=      5-min Rain = 0
KBO1 012251Z 29001KT 09/M14 A3035 RMK A01 T00871144  RH  018%=      5-min Rain = 0
KBO1 012252Z 28001KT 09/M14 A3035 RMK A01 T00871144  RH  018%=      5-min Rain = 0
KBO1 012253Z 34002KT 09/M14 A3035 RMK A01 T00891143  RH  018%=      5-min Rain = 0
KBO1 012254Z 01002KT 09/M14 A3035 RMK A01 T00891144  RH  018%=      5-min Rain = 0
KBO1 012255Z 02002KT 09/M15 A3035 RMK A01 T00891145  RH  018%=      5-min Rain = 0
KBO1 012256Z 29002KT 09/M14 A3035 RMK A01 T00891144  RH  018%=      5-min Rain = 0
KBO1 012257Z 26003KT 09/M14 A3035 RMK A01 T00911144  RH  017%=      5-min Rain = 0
KBO1 012258Z 31004KT 09/M14 A3034 RMK A01 T00911144  RH  017%=      5-min Rain = 0
KBO1 012259Z 33004KT 09/M14 A3034 RMK A01 T00911143  RH  018%=      5-min Rain = 0
KBO1 012300Z 29007KT 09/M14 A3034 RMK A01 T00921142  RH  018%=      5-min Rain = 0
KBO1 012301Z 29008KT 09/M15 A3034 RMK A01 T00911145  RH  017%=      5-min Rain = 0
KBO1 012302Z 30007KT 09/M15 A3034 RMK A01 T00881145  RH  018%=      5-min Rain = 0
KBO1 012303Z 30006KT 09/M15 A3034 RMK A01 T00871146  RH  018%=      5-min Rain = 0
KBO1 012304Z 29004KT 09/M15 A3034 RMK A01 T00851146  RH  018%=      5-min Rain = 0
KBO1 012305Z 27004KT 09/M15 A3034 RMK A01 T00851145  RH  018%=      5-min Rain = 0
KBO1 012306Z 29004KT 09/M14 A3034 RMK A01 T00861144  RH  018%=      5-min Rain = 0
KBO1 012307Z 29002KT 09/M14 A3034 RMK A01 T00881142  RH  018%=      5-min Rain = 0
KBO1 012308Z 30001KT 09/M14 A3034 RMK A01 T00901143  RH  018%=      5-min Rain = 0
KBO1 012309Z 27003KT 09/M15 A3034 RMK A01 T00901145  RH  017%=      5-min Rain = 0
KBO1 012310Z 26002KT 09/M15 A3034 RMK A01 T00891148  RH  017%=      5-min Rain = 0
KBO1 012311Z 26001KT 09/M15 A3034 RMK A01 T00881149  RH  017%=      5-min Rain = 0
KBO1 012312Z 29004KT 09/M15 A3034 RMK A01 T00881147  RH  017%=      5-min Rain = 0
KBO1 012313Z 28004KT 09/M15 A3034 RMK A01 T00891147  RH  017%=      5-min Rain = 0
KBO1 012314Z 28001KT 09/M15 A3034 RMK A01 T00901147  RH  017%=      5-min Rain = 0
KBO1 012315Z 29001KT 09/M15 A3034 RMK A01 T00901146  RH  017%=      5-min Rain = 0
KBO1 012316Z 31003KT 09/M15 A3034 RMK A01 T00921145  RH  017%=      5-min Rain = 0
KBO1 012317Z 30005KT 09/M15 A3034 RMK A01 T00921146  RH  017%=      5-min Rain = 0
KBO1 012318Z 28004KT 09/M15 A3034 RMK A01 T00911147  RH  017%=      5-min Rain = 0
KBO1 012319Z 25010G15KT 09/M15 A3034 RMK A01 T00911148  RH  017%=      5-min Rain = 0
KBO1 012320Z 31010KT 09/M15 A3034 RMK A01 T00901147  RH  017%=      5-min Rain = 0
KBO1 012321Z 33006KT 09/M15 A3034 RMK A01 T00891147  RH  017%=      5-min Rain = 0
KBO1 012322Z 30005KT 09/M15 A3034 RMK A01 T00861148  RH  017%=      5-min Rain = 0
KBO1 012323Z 28007KT 09/M15 A3034 RMK A01 T00861146  RH  018%=      5-min Rain = 0
KBO1 012324Z 28006KT 09/M15 A3034 RMK A01 T00871146  RH  018%=      5-min Rain = 0
KBO1 012325Z 30005KT 09/M15 A3034 RMK A01 T00871148  RH  017%=      5-min Rain = 0
KBO1 012326Z 28004KT 09/M15 A3034 RMK A01 T00861148  RH  017%=      5-min Rain = 0
KBO1 012327Z 28006KT 09/M15 A3034 RMK A01 T00851148  RH  017%=      5-min Rain = 0
KBO1 012328Z 28005KT 09/M15 A3034 RMK A01 T00851147  RH  018%=      5-min Rain = 0
KBO1 012329Z 29004KT 09/M15 A3034 RMK A01 T00851147  RH  018%=      5-min Rain = 0
KBO1 012330Z 30003KT 09/M15 A3034 RMK A01 T00851147  RH  018%=      5-min Rain = 0
KBO1 012331Z 29003KT 09/M15 A3034 RMK A01 T00851147  RH  018%=      5-min Rain = 0
KBO1 012332Z 28003KT 09/M15 A3034 RMK A01 T00851147  RH  018%=      5-min Rain = 0
KBO1 012333Z 28003KT 09/M15 A3034 RMK A01 T00851147  RH  018%=      5-min Rain = 0
KBO1 012334Z 26004KT 09/M15 A3034 RMK A01 T00861147  RH  018%=      5-min Rain = 0
KBO1 012335Z 26004KT 09/M15 A3034 RMK A01 T00861148  RH  017%=      5-min Rain = 0
KBO1 012336Z 28002KT 09/M15 A3034 RMK A01 T00851149  RH  017%=      5-min Rain = 0
KBO1 012337Z 27002KT 08/M15 A3034 RMK A01 T00841148  RH  018%=      5-min Rain = 0
KBO1 012338Z 28001KT 09/M15 A3034 RMK A01 T00861148  RH  017%=      5-min Rain = 0
KBO1 012339Z 28001KT 09/M15 A3034 RMK A01 T00871147  RH  017%=      5-min Rain = 0
KBO1 012340Z 27001KT 09/M15 A3034 RMK A01 T00891146  RH  017%=      5-min Rain = 0
KBO1 012341Z 26001KT 09/M15 A3034 RMK A01 T00901145  RH  017%=      5-min Rain = 0
KBO1 012342Z 32002KT 09/M15 A3034 RMK A01 T00911146  RH  017%=      5-min Rain = 0
KBO1 012343Z 31003KT 09/M15 A3034 RMK A01 T00901147  RH  017%=      5-min Rain = 0
KBO1 012344Z 34005KT 09/M15 A3034 RMK A01 T00901148  RH  017%=      5-min Rain = 0
KBO1 012345Z 34006KT 09/M15 A3034 RMK A01 T00891148  RH  017%=      5-min Rain = 0
KBO1 012346Z 33006KT 09/M15 A3034 RMK A01 T00871148  RH  017%=      5-min Rain = 0
KBO1 012347Z 33005KT 09/M15 A3034 RMK A01 T00851150  RH  017%=      5-min Rain = 0
KBO1 012348Z 34003KT 09/M15 A3034 RMK A01 T00851150  RH  017%=      5-min Rain = 0
KBO1 012349Z 01002KT 08/M15 A3034 RMK A01 T00841151  RH  017%=      5-min Rain = 0
KBO1 012350Z 02001KT 08/M15 A3034 RMK A01 T00831151  RH  017%=      5-min Rain = 0
KBO1 012351Z 01001KT 08/M15 A3034 RMK A01 T00831151  RH  017%=      5-min Rain = 0
KBO1 012352Z 35001KT 08/M15 A3034 RMK A01 T00831150  RH  017%=      5-min Rain = 0
KBO1 012353Z 32002KT 08/M15 A3034 RMK A01 T00831151  RH  017%=      5-min Rain = 0
KBO1 012354Z 28002KT 08/M15 A3034 RMK A01 T00831150  RH  017%=      5-min Rain = 0
KBO1 012355Z 27003KT 08/M15 A3034 RMK A01 T00841149  RH  017%=      5-min Rain = 0
KBO1 012356Z 25003KT 09/M15 A3034 RMK A01 T00851151  RH  017%=      5-min Rain = 0
KBO1 012357Z 23002KT 09/M15 A3034 RMK A01 T00851151  RH  017%=      5-min Rain = 0
KBO1 012358Z 24001KT 08/M15 A3034 RMK A01 T00841151  RH  017%=      5-min Rain = 0
KBO1 012359Z 23000KT 08/M15 A3034 RMK A01 T00841151  RH  017%=      5-min Rain = 0
KBO1 020000Z 32001KT 09/M15 A3034 RMK A01 T00851150  RH  017%=      5-min Rain = 0
KBO1 020001Z 02002KT 09/M15 A3034 RMK A01 T00861151  RH  017%=      5-min Rain = 0
KBO1 020002Z 02003KT 09/M15 A3034 RMK A01 T00851151  RH  017%=      5-min Rain = 0
KBO1 020003Z 02002KT 08/M15 A3034 RMK A01 T00841151  RH  017%=      5-min Rain = 0
KBO1 020004Z 36001KT 08/M15 A3034 RMK A01 T00831152  RH  017%=      5-min Rain = 0
KBO1 020005Z 32000KT 08/M15 A3034 RMK A01 T00821153  RH  017%=      5-min Rain = 0
KBO1 020006Z 33001KT 08/M15 A3034 RMK A01 T00821152  RH  017%=      5-min Rain = 0
KBO1 020007Z 31001KT 08/M15 A3034 RMK A01 T00831153  RH  017%=      5-min Rain = 0
KBO1 020008Z 30000KT 08/M15 A3034 RMK A01 T00831152  RH  017%=      5-min Rain = 0
KBO1 020009Z 00000KT 09/M15 A3034 RMK A01 T00851151  RH  017%=      5-min Rain = 0
KBO1 020010Z 03001KT 09/M15 A3034 RMK A01 T00861151  RH  017%=      5-min Rain = 0
KBO1 020011Z 02002KT 09/M15 A3034 RMK A01 T00851153  RH  017%=      5-min Rain = 0
KBO1 020012Z 36002KT 08/M15 A3034 RMK A01 T00831153  RH  017%=      5-min Rain = 0
KBO1 020013Z 35003KT 08/M15 A3034 RMK A01 T00821153  RH  017%=      5-min Rain = 0
KBO1 020014Z 34003KT 08/M15 A3034 RMK A01 T00811153  RH  017%=      5-min Rain = 0
KBO1 020015Z 34003KT 08/M15 A3034 RMK A01 T00791153  RH  017%=      5-min Rain = 0
KBO1 020016Z 34004KT 08/M15 A3034 RMK A01 T00781152  RH  018%=      5-min Rain = 0
KBO1 020017Z 33003KT 08/M15 A3034 RMK A01 T00771153  RH  018%=      5-min Rain = 0
KBO1 020018Z 33004KT 08/M15 A3034 RMK A01 T00761152  RH  018%=      5-min Rain = 0
KBO1 020019Z 33004KT 08/M15 A3034 RMK A01 T00751152  RH  018%=      5-min Rain = 0
KBO1 020020Z 33004KT 07/M15 A3034 RMK A01 T00731152  RH  018%=      5-min Rain = 0
KBO1 020021Z 34004KT 07/M15 A3034 RMK A01 T00721152  RH  019%=      5-min Rain = 0
KBO1 020022Z 34003KT 07/M15 A3034 RMK A01 T00711152  RH  019%=      5-min Rain = 0
KBO1 020023Z 34003KT 07/M15 A3034 RMK A01 T00701153  RH  019%=      5-min Rain = 0
KBO1 020024Z 34003KT 07/M15 A3034 RMK A01 T00691153  RH  019%=      5-min Rain = 0
KBO1 020025Z 33004KT 07/M15 A3034 RMK A01 T00691154  RH  019%=      5-min Rain = 0
KBO1 020026Z 33004KT 07/M15 A3034 RMK A01 T00691154  RH  019%=      5-min Rain = 0
KBO1 020027Z 33003KT 07/M15 A3034 RMK A01 T00681154  RH  019%=      5-min Rain = 0
KBO1 020028Z 34003KT 07/M15 A3034 RMK A01 T00681154  RH  019%=      5-min Rain = 0
KBO1 020029Z 34003KT 07/M15 A3034 RMK A01 T00671154  RH  019%=      5-min Rain = 0
KBO1 020030Z 34003KT 07/M15 A3034 RMK A01 T00661154  RH  019%=      5-min Rain = 0
KBO1 020031Z 34003KT 07/M15 A3034 RMK A01 T00661154  RH  019%=      5-min Rain = 0
KBO1 020032Z 34003KT 06/M15 A3034 RMK A01 T00641154  RH  019%=      5-min Rain = 0
KBO1 020033Z 34003KT 06/M15 A3034 RMK A01 T00631154  RH  019%=      5-min Rain = 0
KBO1 020034Z 34003KT 06/M15 A3034 RMK A01 T00631153  RH  020%=      5-min Rain = 0
KBO1 020035Z 34003KT 06/M15 A3034 RMK A01 T00621153  RH  020%=      5-min Rain = 0
KBO1 020036Z 34003KT 06/M15 A3034 RMK A01 T00621153  RH  020%=      5-min Rain = 0
KBO1 020037Z 34003KT 06/M15 A3034 RMK A01 T00621153  RH  020%=      5-min Rain = 0
KBO1 020038Z 34003KT 06/M16 A3034 RMK A01 T00611155  RH  020%=      5-min Rain = 0
KBO1 020039Z 34003KT 06/M16 A3034 RMK A01 T00611155  RH  020%=      5-min Rain = 0
KBO1 020040Z 34003KT 06/M16 A3034 RMK A01 T00601156  RH  020%=      5-min Rain = 0
KBO1 020041Z 34003KT 06/M16 A3034 RMK A01 T00601156  RH  020%=      5-min Rain = 0
KBO1 020042Z 34003KT 06/M16 A3034 RMK A01 T00601156  RH  020%=      5-min Rain = 0
KBO1 020043Z 34003KT 06/M16 A3035 RMK A01 T00591156  RH  020%=      5-min Rain = 0
KBO1 020044Z 34003KT 06/M16 A3035 RMK A01 T00591156  RH  020%=      5-min Rain = 0
KBO1 020045Z 35003KT 06/M16 A3035 RMK A01 T00581157  RH  020%=      5-min Rain = 0
KBO1 020046Z 35003KT 06/M16 A3035 RMK A01 T00571157  RH  020%=      5-min Rain = 0
KBO1 020047Z 35003KT 06/M16 A3035 RMK A01 T00561158  RH  020%=      5-min Rain = 0
KBO1 020048Z 35003KT 06/M16 A3035 RMK A01 T00551157  RH  020%=      5-min Rain = 0
KBO1 020049Z 35003KT 06/M16 A3035 RMK A01 T00551157  RH  020%=      5-min Rain = 0
KBO1 020050Z 35003KT 06/M16 A3035 RMK A01 T00551157  RH  020%=      5-min Rain = 0
KBO1 020051Z 36003KT 06/M16 A3035 RMK A01 T00561157  RH  020%=      5-min Rain = 0
KBO1 020052Z 00003KT 06/M16 A3034 RMK A01 T00561158  RH  020%=      5-min Rain = 0
KBO1 020053Z 00003KT 06/M16 A3034 RMK A01 T00571158  RH  020%=      5-min Rain = 0
KBO1 020054Z 00003KT 06/M16 A3035 RMK A01 T00591158  RH  019%=      5-min Rain = 0
KBO1 020055Z 00003KT 06/M16 A3035 RMK A01 T00601158  RH  019%=      5-min Rain = 0
KBO1 020056Z 35004KT 06/M16 A3035 RMK A01 T00611159  RH  019%=      5-min Rain = 0
KBO1 020057Z 35004KT 06/M16 A3035 RMK A01 T00611159  RH  019%=      5-min Rain = 0
KBO1 020058Z 35004KT 06/M16 A3035 RMK A01 T00611160  RH  019%=      5-min Rain = 0
KBO1 020059Z 35003KT 06/M16 A3035 RMK A01 T00621158  RH  019%=      5-min Rain = 0
KBO1 020100Z 34003KT 06/M16 A3035 RMK A01 T00641158  RH  019%=      5-min Rain = 0
KBO1 020101Z 34003KT 07/M16 A3035 RMK A01 T00651158  RH  018%=      5-min Rain = 0
KBO1 020102Z 34003KT 07/M16 A3035 RMK A01 T00651159  RH  018%=      5-min Rain = 0
KBO1 020103Z 34003KT 06/M16 A3035 RMK A01 T00631160  RH  018%=      5-min Rain = 0
KBO1 020104Z 34003KT 06/M16 A3035 RMK A01 T00621161  RH  018%=      5-min Rain = 0
KBO1 020105Z 34003KT 06/M16 A3035 RMK A01 T00621161  RH  018%=      5-min Rain = 0
KBO1 020106Z 34003KT 06/M16 A3035 RMK A01 T00631160  RH  019%=      5-min Rain = 0
KBO1 020107Z 35003KT 06/M16 A3035 RMK A01 T00621160  RH  019%=      5-min Rain = 0
KBO1 020108Z 34003KT 06/M16 A3035 RMK A01 T00621160  RH  019%=      5-min Rain = 0
KBO1 020109Z 34003KT 06/M16 A3035 RMK A01 T00611160  RH  019%=      5-min Rain = 0
KBO1 020110Z 34003KT 06/M16 A3035 RMK A01 T00611160  RH  019%=      5-min Rain = 0
KBO1 020111Z 34003KT 06/M16 A3035 RMK A01 T00601160  RH  019%=      5-min Rain = 0
KBO1 020112Z 34003KT 06/M16 A3035 RMK A01 T00611161  RH  019%=      5-min Rain = 0
KBO1 020113Z 34003KT 06/M16 A3035 RMK A01 T00611162  RH  018%=      5-min Rain = 0
KBO1 020114Z 34002KT 06/M16 A3035 RMK A01 T00611163  RH  018%=      5-min Rain = 0
KBO1 020115Z 34002KT 06/M16 A3035 RMK A01 T00611163  RH  018%=      5-min Rain = 0
KBO1 020116Z 33002KT 06/M16 A3035 RMK A01 T00601164  RH  018%=      5-min Rain = 0
KBO1 020117Z 33002KT 06/M16 A3035 RMK A01 T00591163  RH  019%=      5-min Rain = 0
KBO1 020118Z 33002KT 06/M16 A3035 RMK A01 T00581164  RH  019%=      5-min Rain = 0
KBO1 020119Z 34002KT 06/M16 A3035 RMK A01 T00561164  RH  019%=      5-min Rain = 0
KBO1 020120Z 34003KT 06/M16 A3035 RMK A01 T00561163  RH  019%=      5-min Rain = 0
KBO1 020121Z 34003KT 06/M16 A3035 RMK A01 T00551164  RH  019%=      5-min Rain = 0
KBO1 020122Z 35003KT 06/M16 A3035 RMK A01 T00551163  RH  019%=      5-min Rain = 0
KBO1 020123Z 35003KT 06/M16 A3035 RMK A01 T00551163  RH  019%=      5-min Rain = 0
KBO1 020124Z 35003KT 06/M16 A3035 RMK A01 T00551163  RH  019%=      5-min Rain = 0
KBO1 020125Z 35003KT 06/M16 A3035 RMK A01 T00551163  RH  019%=      5-min Rain = 0
KBO1 020126Z 34003KT 06/M16 A3035 RMK A01 T00551163  RH  019%=      5-min Rain = 0
KBO1 020127Z 34003KT 06/M16 A3035 RMK A01 T00551163  RH  019%=      5-min Rain = 0
KBO1 020128Z 34003KT 05/M16 A3035 RMK A01 T00541164  RH  019%=      5-min Rain = 0
KBO1 020129Z 34003KT 05/M16 A3035 RMK A01 T00511164  RH  019%=      5-min Rain = 0
KBO1 020130Z 34003KT 05/M17 A3035 RMK A01 T00481165  RH  020%=      5-min Rain = 0
KBO1 020131Z 34003KT 05/M16 A3035 RMK A01 T00461164  RH  020%=      5-min Rain = 0
KBO1 020132Z 34003KT 05/M16 A3035 RMK A01 T00451164  RH  020%=      5-min Rain = 0
KBO1 020133Z 34003KT 05/M16 A3035 RMK A01 T00451163  RH  020%=      5-min Rain = 0
KBO1 020134Z 33002KT 04/M16 A3034 RMK A01 T00431163  RH  021%=      5-min Rain = 0
KBO1 020135Z 33002KT 04/M16 A3034 RMK A01 T00411164  RH  021%=      5-min Rain = 0
KBO1 020136Z 33002KT 04/M16 A3034 RMK A01 T00411163  RH  021%=      5-min Rain = 0
KBO1 020137Z 33002KT 04/M16 A3034 RMK A01 T00391163  RH  021%=      5-min Rain = 0
KBO1 020138Z 33001KT 04/M16 A3034 RMK A01 T00391163  RH  021%=      5-min Rain = 0
KBO1 020139Z 33001KT 04/M16 A3034 RMK A01 T00391163  RH  021%=      5-min Rain = 0
KBO1 020140Z 33001KT 04/M16 A3034 RMK A01 T00391163  RH  021%=      5-min Rain = 0
KBO1 020141Z 33001KT 04/M16 A3034 RMK A01 T00401163  RH  021%=      5-min Rain = 0
KBO1 020142Z 33001KT 04/M16 A3034 RMK A01 T00401163  RH  021%=      5-min Rain = 0
KBO1 020143Z 33000KT 04/M16 A3034 RMK A01 T00401163  RH  021%=      5-min Rain = 0
KBO1 020144Z 33000KT 04/M16 A3034 RMK A01 T00401163  RH  021%=      5-min Rain = 0
KBO1 020145Z 33000KT 04/M16 A3034 RMK A01 T00401164  RH  021%=      5-min Rain = 0
KBO1 020146Z 00000KT 04/M16 A3034 RMK A01 T00391163  RH  021%=      5-min Rain = 0
KBO1 020147Z 34000KT 04/M16 A3034 RMK A01 T00381163  RH  021%=      5-min Rain = 0
KBO1 020148Z 00000KT 04/M16 A3034 RMK A01 T00371163  RH  021%=      5-min Rain = 0
KBO1 020149Z 00000KT 04/M16 A3034 RMK A01 T00371163  RH  022%=      5-min Rain = 0
KBO1 020150Z 00000KT 04/M16 A3034 RMK A01 T00361164  RH  022%=      5-min Rain = 0
KBO1 020151Z 00000KT 04/M16 A3034 RMK A01 T00361164  RH  022%=      5-min Rain = 0
KBO1 020152Z 00000KT 04/M16 A3034 RMK A01 T00351164  RH  022%=      5-min Rain = 0
KBO1 020153Z 00000KT 04/M16 A3034 RMK A01 T00351164  RH  022%=      5-min Rain = 0
KBO1 020154Z 00000KT 04/M16 A3034 RMK A01 T00351164  RH  022%=      5-min Rain = 0
KBO1 020155Z 00000KT 03/M16 A3034 RMK A01 T00341164  RH  022%=      5-min Rain = 0
KBO1 020156Z 00000KT 03/M16 A3034 RMK A01 T00341164  RH  022%=      5-min Rain = 0
KBO1 020157Z 00000KT 03/M16 A3034 RMK A01 T00341164  RH  022%=      5-min Rain = 0
KBO1 020158Z 00000KT 03/M16 A3034 RMK A01 T00341164  RH  022%=      5-min Rain = 0
KBO1 020159Z 00000KT 04/M16 A3034 RMK A01 T00351163  RH  022%=      5-min Rain = 0
KBO1 020200Z 00000KT 04/M16 A3034 RMK A01 T00361163  RH  022%=      5-min Rain = 0
KBO1 020201Z 00000KT 04/M16 A3034 RMK A01 T00371163  RH  022%=      5-min Rain = 0
KBO1 020202Z 00000KT 04/M16 A3034 RMK A01 T00371163  RH  022%=      5-min Rain = 0
KBO1 020203Z 00000KT 04/M16 A3034 RMK A01 T00381163  RH  021%=      5-min Rain = 0
KBO1 020204Z 00000KT 04/M16 A3034 RMK A01 T00381163  RH  021%=      5-min Rain = 0
KBO1 020205Z 00000KT 04/M16 A3034 RMK A01 T00381163  RH  021%=      5-min Rain = 0
KBO1 020206Z 12001KT 04/M16 A3034 RMK A01 T00371164  RH  021%=      5-min Rain = 0
KBO1 020207Z 15002KT 04/M16 A3034 RMK A01 T00371164  RH  021%=      5-min Rain = 0
KBO1 020208Z 16003KT 03/M17 A3034 RMK A01 T00321166  RH  022%=      5-min Rain = 0
KBO1 020209Z 16003KT 03/M17 A3034 RMK A01 T00251167  RH  023%=      5-min Rain = 0
KBO1 020210Z 14003KT 02/M17 A3034 RMK A01 T00221165  RH  024%=      5-min Rain = 0
KBO1 020211Z 14003KT 02/M16 A3034 RMK A01 T00201164  RH  024%=      5-min Rain = 0
KBO1 020212Z 14003KT 02/M16 A3034 RMK A01 T00201164  RH  024%=      5-min Rain = 0
KBO1 020213Z 14003KT 02/M16 A3034 RMK A01 T00211163  RH  024%=      5-min Rain = 0
KBO1 020214Z 14003KT 02/M16 A3034 RMK A01 T00231163  RH  024%=      5-min Rain = 0
KBO1 020215Z 14003KT 02/M16 A3034 RMK A01 T00241163  RH  024%=      5-min Rain = 0
KBO1 020216Z 14003KT 03/M16 A3034 RMK A01 T00251163  RH  024%=      5-min Rain = 0
KBO1 020217Z 14003KT 03/M16 A3034 RMK A01 T00251163  RH  023%=      5-min Rain = 0
KBO1 020218Z 13003KT 03/M16 A3034 RMK A01 T00251163  RH  023%=      5-min Rain = 0
KBO1 020219Z 13003KT 03/M16 A3034 RMK A01 T00261163  RH  023%=      5-min Rain = 0
KBO1 020220Z 13003KT 03/M16 A3034 RMK A01 T00261163  RH  023%=      5-min Rain = 0
KBO1 020221Z 13003KT 03/M16 A3034 RMK A01 T00251163  RH  023%=      5-min Rain = 0
KBO1 020222Z 13003KT 03/M16 A3034 RMK A01 T00261163  RH  023%=      5-min Rain = 0
KBO1 020223Z 13003KT 03/M16 A3034 RMK A01 T00271163  RH  023%=      5-min Rain = 0
KBO1 020224Z 13003KT 03/M16 A3034 RMK A01 T00271164  RH  023%=      5-min Rain = 0
KBO1 020225Z 13003KT 03/M16 A3034 RMK A01 T00281164  RH  023%=      5-min Rain = 0
KBO1 020226Z 13003KT 03/M16 A3034 RMK A01 T00281163  RH  023%=      5-min Rain = 0
KBO1 020227Z 13003KT 03/M16 A3034 RMK A01 T00281163  RH  023%=      5-min Rain = 0
KBO1 020228Z 13003KT 03/M16 A3034 RMK A01 T00281164  RH  023%=      5-min Rain = 0
KBO1 020229Z 13003KT 03/M16 A3035 RMK A01 T00281164  RH  023%=      5-min Rain = 0
KBO1 020230Z 13003KT 03/M16 A3035 RMK A01 T00281164  RH  023%=      5-min Rain = 0
KBO1 020231Z 13003KT 03/M16 A3035 RMK A01 T00281164  RH  023%=      5-min Rain = 0
KBO1 020232Z 14003KT 03/M16 A3034 RMK A01 T00281164  RH  023%=      5-min Rain = 0
KBO1 020233Z 14003KT 03/M16 A3034 RMK A01 T00281164  RH  023%=      5-min Rain = 0
KBO1 020234Z 14003KT 03/M16 A3034 RMK A01 T00281163  RH  023%=      5-min Rain = 0
KBO1 020235Z 14003KT 03/M16 A3034 RMK A01 T00271163  RH  023%=      5-min Rain = 0
KBO1 020236Z 14003KT 03/M16 A3034 RMK A01 T00261164  RH  023%=      5-min Rain = 0
KBO1 020237Z 14003KT 03/M16 A3034 RMK A01 T00251164  RH  023%=      5-min Rain = 0
KBO1 020238Z 14003KT 03/M16 A3034 RMK A01 T00251164  RH  023%=      5-min Rain = 0
KBO1 020239Z 13003KT 02/M16 A3034 RMK A01 T00241164  RH  023%=      5-min Rain = 0
KBO1 020240Z 13003KT 03/M16 A3034 RMK A01 T00251164  RH  023%=      5-min Rain = 0
KBO1 020241Z 13003KT 03/M16 A3034 RMK A01 T00251164  RH  023%=      5-min Rain = 0
KBO1 020242Z 13003KT 03/M16 A3034 RMK A01 T00251164  RH  023%=      5-min Rain = 0
KBO1 020243Z 13003KT 03/M16 A3034 RMK A01 T00251164  RH  023%=      5-min Rain = 0
KBO1 020244Z 13004KT 03/M16 A3034 RMK A01 T00251164  RH  023%=      5-min Rain = 0
KBO1 020245Z 13004KT 02/M16 A3034 RMK A01 T00241164  RH  023%=      5-min Rain = 0
KBO1 020246Z 13004KT 02/M17 A3034 RMK A01 T00211166  RH  024%=      5-min Rain = 0
KBO1 020247Z 14004KT 02/M17 A3034 RMK A01 T00191165  RH  024%=      5-min Rain = 0
KBO1 020248Z 14004KT 02/M17 A3034 RMK A01 T00171165  RH  024%=      5-min Rain = 0
KBO1 020249Z 14004KT 02/M17 A3034 RMK A01 T00151165  RH  025%=      5-min Rain = 0
KBO1 020250Z 14004KT 02/M16 A3034 RMK A01 T00151164  RH  025%=      5-min Rain = 0
KBO1 020251Z 14004KT 02/M16 A3034 RMK A01 T00151164  RH  025%=      5-min Rain = 0
KBO1 020252Z 14004KT 02/M16 A3034 RMK A01 T00161163  RH  025%=      5-min Rain = 0
KBO1 020253Z 14004KT 02/M16 A3034 RMK A01 T00181163  RH  025%=      5-min Rain = 0
KBO1 020254Z 13005KT 02/M16 A3034 RMK A01 T00201163  RH  024%=      5-min Rain = 0
KBO1 020255Z 13004KT 02/M16 A3034 RMK A01 T00211163  RH  024%=      5-min Rain = 0
KBO1 020256Z 13004KT 02/M16 A3034 RMK A01 T00221163  RH  024%=      5-min Rain = 0
KBO1 020257Z 13004KT 02/M16 A3034 RMK A01 T00231163  RH  024%=      5-min Rain = 0
KBO1 020258Z 14004KT 02/M16 A3034 RMK A01 T00231163  RH  024%=      5-min Rain = 0
KBO1 020259Z 14004KT 02/M16 A3034 RMK A01 T00231163  RH  024%=      5-min Rain = 0
KBO1 020300Z 14004KT 02/M16 A3034 RMK A01 T00221163  RH  024%=      5-min Rain = 0
KBO1 020301Z 14004KT 02/M16 A3034 RMK A01 T00221163  RH  024%=      5-min Rain = 0
KBO1 020302Z 14004KT 02/M16 A3034 RMK A01 T00231163  RH  024%=      5-min Rain = 0
KBO1 020303Z 14004KT 02/M16 A3034 RMK A01 T00231163  RH  024%=      5-min Rain = 0
KBO1 020304Z 14004KT 02/M16 A3034 RMK A01 T00231163  RH  024%=      5-min Rain = 0
KBO1 020305Z 14004KT 02/M16 A3034 RMK A01 T00231163  RH  024%=      5-min Rain = 0
KBO1 020306Z 14004KT 02/M16 A3034 RMK A01 T00231163  RH  024%=      5-min Rain = 0
KBO1 020307Z 14004KT 02/M16 A3034 RMK A01 T00231163  RH  024%=      5-min Rain = 0
KBO1 020308Z 14004KT 02/M16 A3034 RMK A01 T00231163  RH  024%=      5-min Rain = 0
KBO1 020309Z 14005KT 02/M16 A3034 RMK A01 T00221163  RH  024%=      5-min Rain = 0
KBO1 020310Z 14005KT 02/M16 A3034 RMK A01 T00231163  RH  024%=      5-min Rain = 0
KBO1 020311Z 14005KT 02/M16 A3034 RMK A01 T00221163  RH  024%=      5-min Rain = 0
KBO1 020312Z 15005KT 02/M16 A3034 RMK A01 T00211163  RH  024%=      5-min Rain = 0
KBO1 020313Z 15005KT 02/M16 A3034 RMK A01 T00191163  RH  024%=      5-min Rain = 0
KBO1 020314Z 16005KT 02/M17 A3034 RMK A01 T00161165  RH  025%=      5-min Rain = 0
KBO1 020315Z 16005KT 01/M16 A3034 RMK A01 T00141164  RH  025%=      5-min Rain = 0
KBO1 020316Z 16005KT 01/M16 A3034 RMK A01 T00131164  RH  025%=      5-min Rain = 0
KBO1 020317Z 15005KT 01/M16 A3034 RMK A01 T00141163  RH  025%=      5-min Rain = 0
KBO1 020318Z 15005KT 01/M16 A3034 RMK A01 T00121164  RH  026%=      5-min Rain = 0
KBO1 020319Z 15005KT 01/M16 A3034 RMK A01 T00091164  RH  026%=      5-min Rain = 0
KBO1 020320Z 16005KT 01/M16 A3034 RMK A01 T00091163  RH  026%=      5-min Rain = 0
KBO1 020321Z 16005KT 01/M16 A3034 RMK A01 T00101162  RH  026%=      5-min Rain = 0
KBO1 020322Z 17005KT 01/M16 A3034 RMK A01 T00101163  RH  026%=      5-min Rain = 0
KBO1 020323Z 16005KT 01/M16 A3034 RMK A01 T00101163  RH  026%=      5-min Rain = 0
KBO1 020324Z 17005KT 01/M16 A3034 RMK A01 T00071164  RH  026%=      5-min Rain = 0
KBO1 020325Z 16005KT 00/M17 A3034 RMK A01 T00031165  RH  027%=      5-min Rain = 0
KBO1 020326Z 16005KT M00/M16 A3034 RMK A01 T10011164  RH  028%=      5-min Rain = 0
KBO1 020327Z 16004KT M00/M16 A3034 RMK A01 T10011163  RH  028%=      5-min Rain = 0
KBO1 020328Z 17004KT 00/16 A3034 RMK A01 T00000-162  RH  028%=      5-min Rain = 0
KBO1 020329Z 17004KT 00/16 A3034 RMK A01 T00000-162  RH  028%=      5-min Rain = 0
KBO1 020330Z 17004KT 00/16 A3034 RMK A01 T00-00-162  RH  028%=      5-min Rain = 0
KBO1 020331Z 16005KT M00/M16 A3034 RMK A01 T10011163  RH  028%=      5-min Rain = 0
KBO1 020332Z 16005KT M00/M16 A3034 RMK A01 T10021163  RH  029%=      5-min Rain = 0
KBO1 020333Z 17005KT M00/M16 A3034 RMK A01 T10041163  RH  029%=      5-min Rain = 0
KBO1 020334Z 17005KT M01/M16 A3035 RMK A01 T10051163  RH  029%=      5-min Rain = 0
KBO1 020335Z 18005KT M01/M16 A3035 RMK A01 T10071163  RH  030%=      5-min Rain = 0
KBO1 020336Z 18005KT M01/M16 A3035 RMK A01 T10101163  RH  030%=      5-min Rain = 0
KBO1 020337Z 18004KT M01/M16 A3035 RMK A01 T10091162  RH  030%=      5-min Rain = 0
KBO1 020338Z 18005KT M01/M16 A3035 RMK A01 T10061161  RH  030%=      5-min Rain = 0
KBO1 020339Z 19005KT M00/M16 A3035 RMK A01 T10041161  RH  029%=      5-min Rain = 0
KBO1 020340Z 19005KT M00/M16 A3035 RMK A01 T10021161  RH  029%=      5-min Rain = 0
KBO1 020341Z 18004KT M00/M16 A3034 RMK A01 T10021162  RH  029%=      5-min Rain = 0
KBO1 020342Z 18004KT M00/M16 A3034 RMK A01 T10021162  RH  029%=      5-min Rain = 0
KBO1 020343Z 18005KT M00/M16 A3034 RMK A01 T10021162  RH  029%=      5-min Rain = 0
KBO1 020344Z 18004KT M00/M16 A3034 RMK A01 T10021163  RH  029%=      5-min Rain = 0
KBO1 020345Z 17004KT M00/M16 A3034 RMK A01 T10031163  RH  029%=      5-min Rain = 0
KBO1 020346Z 17004KT M00/M16 A3034 RMK A01 T10041163  RH  029%=      5-min Rain = 0
KBO1 020347Z 16004KT M00/M16 A3034 RMK A01 T10041162  RH  029%=      5-min Rain = 0
KBO1 020348Z 16005KT M00/M16 A3034 RMK A01 T10031162  RH  029%=      5-min Rain = 0
KBO1 020349Z 16005KT M00/M16 A3034 RMK A01 T10011161  RH  029%=      5-min Rain = 0
KBO1 020350Z 16005KT 00/M16 A3034 RMK A01 T00011161  RH  028%=      5-min Rain = 0
KBO1 020351Z 16005KT 00/M16 A3034 RMK A01 T00011161  RH  028%=      5-min Rain = 0
KBO1 020352Z 16005KT 00/16 A3034 RMK A01 T00-00-162  RH  028%=      5-min Rain = 0
KBO1 020353Z 16005KT M00/M16 A3034 RMK A01 T10011162  RH  029%=      5-min Rain = 0
KBO1 020354Z 16005KT M00/M16 A3034 RMK A01 T10011162  RH  029%=      5-min Rain = 0
KBO1 020355Z 16005KT M00/M16 A3034 RMK A01 T10011162  RH  029%=      5-min Rain = 0
KBO1 020356Z 16006KT M00/M16 A3034 RMK A01 T10011162  RH  029%=      5-min Rain = 0
KBO1 020357Z 16006KT 00/16 A3034 RMK A01 T00000-161  RH  028%=      5-min Rain = 0
KBO1 020358Z 16006KT 00/M16 A3034 RMK A01 T00011162  RH  028%=      5-min Rain = 0
KBO1 020359Z 17006KT 00/M16 A3034 RMK A01 T00021162  RH  028%=      5-min Rain = 0
KBO1 020400Z 17007KT 00/M16 A3034 RMK A01 T00021161  RH  028%=      5-min Rain = 0
KBO1 020401Z 17007KT 00/M16 A3034 RMK A01 T00011163  RH  028%=      5-min Rain = 0
KBO1 020402Z 18007KT M00/M16 A3034 RMK A01 T10021163  RH  029%=      5-min Rain = 0
KBO1 020403Z 18007KT M01/M16 A3034 RMK A01 T10051163  RH  029%=      5-min Rain = 0
KBO1 020404Z 18008KT M01/M16 A3034 RMK A01 T10081163  RH  030%=      5-min Rain = 0
KBO1 020405Z 18008KT M01/M16 A3034 RMK A01 T10121164  RH  031%=      5-min Rain = 0
KBO1 020406Z 17008KT M02/M16 A3034 RMK A01 T10161163  RH  031%=      5-min Rain = 0
KBO1 020407Z 17008KT M02/M16 A3034 RMK A01 T10181162  RH  032%=      5-min Rain = 0
KBO1 020408Z 17008KT M02/M16 A3034 RMK A01 T10201162  RH  033%=      5-min Rain = 0
KBO1 020409Z 18009KT M02/M16 A3034 RMK A01 T10221162  RH  034%=      5-min Rain = 0
KBO1 020410Z 18009KT M03/M16 A3034 RMK A01 T10251161  RH  034%=      5-min Rain = 0
KBO1 020411Z 18009KT M03/M16 A3034 RMK A01 T10291161  RH  035%=      5-min Rain = 0
KBO1 020412Z 17010KT M03/M16 A3034 RMK A01 T10321161  RH  036%=      5-min Rain = 0
KBO1 020413Z 17009KT M04/M16 A3034 RMK A01 T10351160  RH  037%=      5-min Rain = 0
KBO1 020414Z 17009KT M04/M16 A3034 RMK A01 T10361158  RH  038%=      5-min Rain = 0
KBO1 020415Z 17009KT M04/M16 A3034 RMK A01 T10361157  RH  039%=      5-min Rain = 0
KBO1 020416Z 17010KT M04/M16 A3034 RMK A01 T10361156  RH  039%=      5-min Rain = 0
KBO1 020417Z 18011KT M04/M16 A3034 RMK A01 T10361155  RH  039%=      5-min Rain = 0
KBO1 020418Z 18011KT M04/M15 A3034 RMK A01 T10371154  RH  040%=      5-min Rain = 0
KBO1 020419Z 18011KT M04/M15 A3034 RMK A01 T10371152  RH  040%=      5-min Rain = 0
KBO1 020420Z 18011KT M03/M15 A3034 RMK A01 T10341149  RH  041%=      5-min Rain = 0
KBO1 020421Z 19011KT M03/M15 A3034 RMK A01 T10291145  RH  040%=      5-min Rain = 0
KBO1 020422Z 18010KT M02/M14 A3034 RMK A01 T10241143  RH  039%=      5-min Rain = 0
KBO1 020423Z 18011KT M02/M14 A3034 RMK A01 T10211144  RH  039%=      5-min Rain = 0
KBO1 020424Z 18011KT M02/M14 A3034 RMK A01 T10201144  RH  038%=      5-min Rain = 0
KBO1 020425Z 19011KT M02/M15 A3034 RMK A01 T10201145  RH  038%=      5-min Rain = 0
KBO1 020426Z 19011KT M02/M15 A3034 RMK A01 T10201145  RH  038%=      5-min Rain = 0
KBO1 020427Z 19011KT M02/M15 A3034 RMK A01 T10191146  RH  037%=      5-min Rain = 0
KBO1 020428Z 19011KT M02/M15 A3034 RMK A01 T10191146  RH  037%=      5-min Rain = 0
KBO1 020429Z 19011KT M02/M15 A3034 RMK A01 T10191146  RH  037%=      5-min Rain = 0
KBO1 020430Z 19011KT M02/M15 A3034 RMK A01 T10201147  RH  037%=      5-min Rain = 0
KBO1 020431Z 19011KT M02/M15 A3034 RMK A01 T10211148  RH  037%=      5-min Rain = 0
KBO1 020432Z 19011KT M02/M15 A3034 RMK A01 T10211148  RH  037%=      5-min Rain = 0
KBO1 020433Z 19011KT M02/M15 A3034 RMK A01 T10221148  RH  037%=      5-min Rain = 0
KBO1 020434Z 19011KT M02/M15 A3034 RMK A01 T10231148  RH  037%=      5-min Rain = 0
KBO1 020435Z 19011KT M02/M15 A3034 RMK A01 T10231149  RH  037%=      5-min Rain = 0
KBO1 020436Z 19011KT M02/M15 A3034 RMK A01 T10241149  RH  038%=      5-min Rain = 0
KBO1 020437Z 19011KT M03/M15 A3034 RMK A01 T10251149  RH  038%=      5-min Rain = 0
KBO1 020438Z 19012KT M03/M15 A3034 RMK A01 T10251149  RH  038%=      5-min Rain = 0
KBO1 020439Z 19012KT M03/M15 A3034 RMK A01 T10261149  RH  038%=      5-min Rain = 0
KBO1 020440Z 20012KT M03/M15 A3034 RMK A01 T10261148  RH  038%=      5-min Rain = 0
KBO1 020441Z 20012KT M03/M15 A3034 RMK A01 T10261148  RH  039%=      5-min Rain = 0
KBO1 020442Z 19012KT M03/M15 A3034 RMK A01 T10261147  RH  039%=      5-min Rain = 0
KBO1 020443Z 20013KT M03/M15 A3034 RMK A01 T10261146  RH  039%=      5-min Rain = 0
KBO1 020444Z 19013KT M03/M15 A3034 RMK A01 T10251145  RH  039%=      5-min Rain = 0
KBO1 020445Z 19013KT M02/M14 A3034 RMK A01 T10221143  RH  039%=      5-min Rain = 0
KBO1 020446Z 19013KT M02/M14 A3034 RMK A01 T10191141  RH  039%=      5-min Rain = 0
KBO1 020447Z 20012KT M02/M14 A3034 RMK A01 T10161140  RH  038%=      5-min Rain = 0
KBO1 020448Z 20012KT M01/M14 A3034 RMK A01 T10141141  RH  037%=      5-min Rain = 0
KBO1 020449Z 20012KT M01/M14 A3034 RMK A01 T10141141  RH  037%=      5-min Rain = 0
KBO1 020450Z 20012KT M01/M14 A3034 RMK A01 T10141142  RH  037%=      5-min Rain = 0
KBO1 020451Z 20012KT M01/M14 A3034 RMK A01 T10141142  RH  037%=      5-min Rain = 0
KBO1 020452Z 20012KT M02/M14 A3034 RMK A01 T10151143  RH  037%=      5-min Rain = 0
KBO1 020453Z 20012KT M02/M14 A3034 RMK A01 T10151142  RH  037%=      5-min Rain = 0
KBO1 020454Z 19012KT M01/M14 A3034 RMK A01 T10141142  RH  037%=      5-min Rain = 0
KBO1 020455Z 19011KT M02/M14 A3034 RMK A01 T10151142  RH  037%=      5-min Rain = 0
KBO1 020456Z 19011KT M02/M14 A3034 RMK A01 T10151143  RH  037%=      5-min Rain = 0
KBO1 020457Z 19012KT M02/M14 A3034 RMK A01 T10161143  RH  037%=      5-min Rain = 0
KBO1 020458Z 19012KT M02/M14 A3034 RMK A01 T10171143  RH  038%=      5-min Rain = 0
KBO1 020459Z 19012KT M02/M14 A3034 RMK A01 T10171143  RH  038%=      5-min Rain = 0
KBO1 020500Z 19012KT M02/M14 A3034 RMK A01 T10171143  RH  038%=      5-min Rain = 0
KBO1 020501Z 19012KT M02/M14 A3034 RMK A01 T10181143  RH  038%=      5-min Rain = 0
KBO1 020502Z 19012KT M02/M14 A3034 RMK A01 T10191143  RH  038%=      5-min Rain = 0
KBO1 020503Z 20011KT M02/M14 A3034 RMK A01 T10201143  RH  038%=      5-min Rain = 0
KBO1 020504Z 20011KT M02/M14 A3034 RMK A01 T10201143  RH  038%=      5-min Rain = 0
KBO1 020505Z 20011KT M02/M14 A3034 RMK A01 T10211143  RH  039%=      5-min Rain = 0
KBO1 020506Z 20011KT M02/M14 A3034 RMK A01 T10211143  RH  039%=      5-min Rain = 0
KBO1 020507Z 20010KT M02/M14 A3033 RMK A01 T10211143  RH  039%=      5-min Rain = 0
KBO1 020508Z 20010KT M02/M14 A3033 RMK A01 T10221142  RH  039%=      5-min Rain = 0
KBO1 020509Z 20010KT M02/M14 A3033 RMK A01 T10221142  RH  039%=      5-min Rain = 0
KBO1 020510Z 20010KT M02/M14 A3033 RMK A01 T10221142  RH  039%=      5-min Rain = 0
KBO1 020511Z 20010KT M02/M14 A3033 RMK A01 T10231142  RH  039%=      5-min Rain = 0
KBO1 020512Z 20011KT M02/M14 A3033 RMK A01 T10221142  RH  039%=      5-min Rain = 0
KBO1 020513Z 20011KT M02/M14 A3033 RMK A01 T10221142  RH  039%=      5-min Rain = 0
KBO1 020514Z 20011KT M02/M14 A3033 RMK A01 T10221142  RH  039%=      5-min Rain = 0
KBO1 020515Z 20011KT M02/M14 A3033 RMK A01 T10221142  RH  039%=      5-min Rain = 0
KBO1 020516Z 20010KT M02/M14 A3033 RMK A01 T10221143  RH  039%=      5-min Rain = 0
KBO1 020517Z 21010KT M02/M14 A3033 RMK A01 T10231143  RH  039%=      5-min Rain = 0
KBO1 020518Z 21009KT M03/M14 A3033 RMK A01 T10251144  RH  040%=      5-min Rain = 0
KBO1 020519Z 21008KT M03/M14 A3033 RMK A01 T10271144  RH  040%=      5-min Rain = 0
KBO1 020520Z 20008KT M03/M14 A3033 RMK A01 T10291144  RH  041%=      5-min Rain = 0
KBO1 020521Z 20009KT M03/M15 A3033 RMK A01 T10311145  RH  041%=      5-min Rain = 0
KBO1 020522Z 20009KT M03/M15 A3033 RMK A01 T10321146  RH  041%=      5-min Rain = 0
KBO1 020523Z 20009KT M03/M15 A3033 RMK A01 T10341147  RH  041%=      5-min Rain = 0
KBO1 020524Z 21010KT M04/M15 A3033 RMK A01 T10351147  RH  042%=      5-min Rain = 0
KBO1 020525Z 20010KT M04/M15 A3033 RMK A01 T10361147  RH  042%=      5-min Rain = 0
KBO1 020526Z 20010KT M04/M15 A3033 RMK A01 T10371147  RH  042%=      5-min Rain = 0
KBO1 020527Z 20010KT M04/M15 A3033 RMK A01 T10371147  RH  042%=      5-min Rain = 0
KBO1 020528Z 20009KT M04/M15 A3033 RMK A01 T10371147  RH  042%=      5-min Rain = 0
KBO1 020529Z 20009KT M04/M15 A3033 RMK A01 T10381147  RH  042%=      5-min Rain = 0
KBO1 020530Z 20010KT M04/M15 A3033 RMK A01 T10391147  RH  043%=      5-min Rain = 0
KBO1 020531Z 20010KT M04/M15 A3033 RMK A01 T10401147  RH  043%=      5-min Rain = 0
KBO1 020532Z 20010KT M04/M15 A3033 RMK A01 T10401146  RH  043%=      5-min Rain = 0
KBO1 020533Z 20010KT M04/M15 A3033 RMK A01 T10391145  RH  043%=      5-min Rain = 0
KBO1 020534Z 20010KT M04/M14 A3033 RMK A01 T10381144  RH  044%=      5-min Rain = 0
KBO1 020535Z 20011KT M04/M14 A3032 RMK A01 T10351141  RH  044%=      5-min Rain = 0
KBO1 020536Z 20011KT M03/M14 A3032 RMK A01 T10311139  RH  043%=      5-min Rain = 0
KBO1 020537Z 20012KT M03/M14 A3032 RMK A01 T10271139  RH  042%=      5-min Rain = 0
KBO1 020538Z 20011KT M03/M14 A3032 RMK A01 T10251139  RH  041%=      5-min Rain = 0
KBO1 020539Z 20011KT M02/M14 A3032 RMK A01 T10231139  RH  041%=      5-min Rain = 0
KBO1 020540Z 20010KT M02/M14 A3032 RMK A01 T10221140  RH  040%=      5-min Rain = 0
KBO1 020541Z 20010KT M02/M14 A3032 RMK A01 T10221140  RH  040%=      5-min Rain = 0
KBO1 020542Z 20010KT M02/M14 A3032 RMK A01 T10211140  RH  040%=      5-min Rain = 0
KBO1 020543Z 21010KT M02/M14 A3032 RMK A01 T10211140  RH  040%=      5-min Rain = 0
KBO1 020544Z 21009KT M02/M14 A3032 RMK A01 T10201140  RH  039%=      5-min Rain = 0
KBO1 020545Z 20009KT M02/M14 A3032 RMK A01 T10201140  RH  039%=      5-min Rain = 0
KBO1 020546Z 20009KT M02/M14 A3032 RMK A01 T10211141  RH  039%=      5-min Rain = 0
KBO1 020547Z 20009KT M02/M14 A3032 RMK A01 T10211141  RH  040%=      5-min Rain = 0
KBO1 020548Z 20009KT M02/M14 A3032 RMK A01 T10221141  RH  040%=      5-min Rain = 0
KBO1 020549Z 20009KT M02/M14 A3032 RMK A01 T10231142  RH  040%=      5-min Rain = 0
KBO1 020550Z 20009KT M02/M14 A3032 RMK A01 T10241142  RH  040%=      5-min Rain = 0
KBO1 020551Z 21008KT M03/M14 A3032 RMK A01 T10271143  RH  040%=      5-min Rain = 0
KBO1 020552Z 21008KT M03/M15 A3032 RMK A01 T10291145  RH  041%=      5-min Rain = 0
KBO1 020553Z 21008KT M03/M15 A3032 RMK A01 T10321145  RH  041%=      5-min Rain = 0
KBO1 020554Z 21008KT M03/M15 A3032 RMK A01 T10341146  RH  042%=      5-min Rain = 0
KBO1 020555Z 20007KT M04/M15 A3032 RMK A01 T10361146  RH  042%=      5-min Rain = 0
KBO1 020556Z 21007KT M04/M15 A3032 RMK A01 T10371146  RH  042%=      5-min Rain = 0
KBO1 020557Z 21008KT M04/M15 A3032 RMK A01 T10391147  RH  043%=      5-min Rain = 0
KBO1 020558Z 21008KT M04/M15 A3032 RMK A01 T10401147  RH  043%=      5-min Rain = 0
KBO1 020559Z 21009KT M04/M15 A3032 RMK A01 T10411147  RH  043%=      5-min Rain = 0

Page generated in 0.15 seconds.